Observation data for Throckmorton on 07/04/2020      Previous  Date  Next       Current Mesonet Observations  Soil Data  Daily Summary Page  Observations in Plain Language
KTH1 040500Z 15004KT 26/19 A2997 RMK A01 T02590192  RH  066%=      5-min Rain = 0
KTH1 040501Z 15003KT 26/19 A2997 RMK A01 T02590192  RH  066%=      5-min Rain = 0
KTH1 040502Z 15004KT 26/19 A2997 RMK A01 T02580192  RH  067%=      5-min Rain = 0
KTH1 040503Z 15004KT 26/19 A2997 RMK A01 T02580192  RH  067%=      5-min Rain = 0
KTH1 040504Z 15004KT 26/19 A2997 RMK A01 T02590192  RH  067%=      5-min Rain = 0
KTH1 040505Z 15004KT 26/19 A2997 RMK A01 T02580192  RH  067%=      5-min Rain = 0
KTH1 040506Z 15005KT 26/19 A2997 RMK A01 T02590192  RH  067%=      5-min Rain = 0
KTH1 040507Z 15004KT 26/19 A2997 RMK A01 T02590192  RH  067%=      5-min Rain = 0
KTH1 040508Z 15004KT 26/19 A2997 RMK A01 T02590192  RH  067%=      5-min Rain = 0
KTH1 040509Z 15004KT 26/19 A2997 RMK A01 T02590192  RH  067%=      5-min Rain = 0
KTH1 040510Z 15004KT 26/19 A2997 RMK A01 T02580192  RH  067%=      5-min Rain = 0
KTH1 040511Z 15004KT 26/19 A2997 RMK A01 T02580192  RH  067%=      5-min Rain = 0
KTH1 040512Z 15003KT 26/19 A2997 RMK A01 T02570192  RH  067%=      5-min Rain = 0
KTH1 040513Z 15003KT 26/19 A2997 RMK A01 T02570192  RH  067%=      5-min Rain = 0
KTH1 040514Z 15003KT 26/19 A2997 RMK A01 T02570193  RH  067%=      5-min Rain = 0
KTH1 040515Z 15003KT 26/19 A2997 RMK A01 T02570192  RH  068%=      5-min Rain = 0
KTH1 040516Z 15003KT 26/19 A2997 RMK A01 T02570192  RH  068%=      5-min Rain = 0
KTH1 040517Z 15003KT 26/19 A2997 RMK A01 T02560193  RH  068%=      5-min Rain = 0
KTH1 040518Z 15004KT 26/19 A2997 RMK A01 T02560192  RH  068%=      5-min Rain = 0
KTH1 040519Z 15004KT 26/19 A2997 RMK A01 T02560192  RH  068%=      5-min Rain = 0
KTH1 040520Z 15004KT 26/19 A2997 RMK A01 T02550193  RH  068%=      5-min Rain = 0
KTH1 040521Z 15004KT 26/19 A2997 RMK A01 T02550192  RH  068%=      5-min Rain = 0
KTH1 040522Z 15004KT 25/19 A2997 RMK A01 T02540193  RH  069%=      5-min Rain = 0
KTH1 040523Z 15003KT 25/19 A2997 RMK A01 T02530192  RH  069%=      5-min Rain = 0
KTH1 040524Z 15003KT 25/19 A2997 RMK A01 T02530192  RH  069%=      5-min Rain = 0
KTH1 040525Z 15003KT 25/19 A2997 RMK A01 T02520192  RH  069%=      5-min Rain = 0
KTH1 040526Z 15003KT 25/19 A2997 RMK A01 T02520192  RH  070%=      5-min Rain = 0
KTH1 040527Z 15003KT 25/19 A2997 RMK A01 T02510192  RH  070%=      5-min Rain = 0
KTH1 040528Z 15003KT 25/19 A2997 RMK A01 T02510193  RH  070%=      5-min Rain = 0
KTH1 040529Z 15003KT 25/19 A2997 RMK A01 T02500192  RH  070%=      5-min Rain = 0
KTH1 040530Z 15003KT 25/19 A2997 RMK A01 T02500193  RH  070%=      5-min Rain = 0
KTH1 040531Z 15003KT 25/19 A2997 RMK A01 T02500193  RH  071%=      5-min Rain = 0
KTH1 040532Z 15003KT 25/19 A2997 RMK A01 T02500194  RH  071%=      5-min Rain = 0
KTH1 040533Z 15003KT 25/19 A2997 RMK A01 T02500194  RH  071%=      5-min Rain = 0
KTH1 040534Z 15003KT 25/19 A2997 RMK A01 T02500194  RH  071%=      5-min Rain = 0
KTH1 040535Z 15003KT 25/20 A2997 RMK A01 T02510195  RH  071%=      5-min Rain = 0
KTH1 040536Z 15002KT 25/20 A2997 RMK A01 T02520195  RH  071%=      5-min Rain = 0
KTH1 040537Z 15003KT 25/20 A2997 RMK A01 T02520196  RH  071%=      5-min Rain = 0
KTH1 040538Z 14002KT 25/20 A2997 RMK A01 T02520196  RH  071%=      5-min Rain = 0
KTH1 040539Z 14002KT 25/20 A2997 RMK A01 T02530197  RH  071%=      5-min Rain = 0
KTH1 040540Z 13002KT 25/20 A2997 RMK A01 T02530197  RH  071%=      5-min Rain = 0
KTH1 040541Z 12002KT 25/20 A2997 RMK A01 T02540198  RH  071%=      5-min Rain = 0
KTH1 040542Z 13003KT 25/20 A2997 RMK A01 T02540198  RH  071%=      5-min Rain = 0
KTH1 040543Z 13003KT 25/20 A2997 RMK A01 T02540198  RH  071%=      5-min Rain = 0
KTH1 040544Z 13002KT 25/20 A2997 RMK A01 T02540199  RH  071%=      5-min Rain = 0
KTH1 040545Z 14002KT 25/20 A2997 RMK A01 T02540198  RH  071%=      5-min Rain = 0
KTH1 040546Z 13002KT 25/20 A2997 RMK A01 T02530198  RH  072%=      5-min Rain = 0
KTH1 040547Z 14002KT 25/20 A2997 RMK A01 T02530198  RH  072%=      5-min Rain = 0
KTH1 040548Z 14002KT 25/20 A2997 RMK A01 T02520198  RH  072%=      5-min Rain = 0
KTH1 040549Z 14003KT 25/20 A2997 RMK A01 T02510198  RH  072%=      5-min Rain = 0
KTH1 040550Z 14002KT 25/20 A2997 RMK A01 T02510198  RH  073%=      5-min Rain = 0
KTH1 040551Z 15003KT 25/20 A2997 RMK A01 T02500199  RH  073%=      5-min Rain = 0
KTH1 040552Z 14003KT 25/20 A2997 RMK A01 T02500199  RH  073%=      5-min Rain = 0
KTH1 040553Z 15003KT 25/20 A2997 RMK A01 T02500199  RH  073%=      5-min Rain = 0
KTH1 040554Z 14003KT 25/20 A2997 RMK A01 T02490199  RH  074%=      5-min Rain = 0
KTH1 040555Z 14003KT 25/20 A2997 RMK A01 T02490199  RH  074%=      5-min Rain = 0
KTH1 040556Z 15003KT 25/20 A2997 RMK A01 T02490199  RH  074%=      5-min Rain = 0
KTH1 040557Z 14003KT 25/20 A2997 RMK A01 T02480199  RH  074%=      5-min Rain = 0
KTH1 040558Z 15003KT 25/20 A2997 RMK A01 T02480199  RH  074%=      5-min Rain = 0
KTH1 040559Z 15004KT 25/20 A2997 RMK A01 T02470199  RH  074%=      5-min Rain = 0
KTH1 040600Z 15004KT 25/20 A2997 RMK A01 T02470199  RH  075%=      5-min Rain = 0
KTH1 040601Z 15004KT 25/20 A2997 RMK A01 T02470199  RH  075%=      5-min Rain = 0
KTH1 040602Z 15004KT 25/20 A2997 RMK A01 T02470200  RH  075%=      5-min Rain = 0
KTH1 040603Z 15004KT 25/20 A2997 RMK A01 T02460199  RH  075%=      5-min Rain = 0
KTH1 040604Z 15004KT 25/20 A2997 RMK A01 T02470200  RH  075%=      5-min Rain = 0
KTH1 040605Z 14004KT 25/20 A2997 RMK A01 T02460200  RH  075%=      5-min Rain = 0
KTH1 040606Z 14004KT 25/20 A2997 RMK A01 T02470201  RH  076%=      5-min Rain = 0
KTH1 040607Z 14003KT 25/20 A2997 RMK A01 T02470201  RH  076%=      5-min Rain = 0
KTH1 040608Z 14003KT 25/20 A2997 RMK A01 T02480201  RH  075%=      5-min Rain = 0
KTH1 040609Z 14003KT 25/20 A2997 RMK A01 T02480202  RH  075%=      5-min Rain = 0
KTH1 040610Z 14003KT 25/20 A2997 RMK A01 T02480202  RH  075%=      5-min Rain = 0
KTH1 040611Z 14003KT 25/20 A2997 RMK A01 T02480201  RH  075%=      5-min Rain = 0
KTH1 040612Z 14003KT 25/20 A2996 RMK A01 T02480201  RH  075%=      5-min Rain = 0
KTH1 040613Z 14003KT 25/20 A2996 RMK A01 T02490202  RH  075%=      5-min Rain = 0
KTH1 040614Z 13002KT 25/20 A2996 RMK A01 T02480202  RH  075%=      5-min Rain = 0
KTH1 040615Z 13002KT 25/20 A2996 RMK A01 T02490203  RH  076%=      5-min Rain = 0
KTH1 040616Z 13002KT 25/20 A2996 RMK A01 T02480202  RH  076%=      5-min Rain = 0
KTH1 040617Z 13002KT 25/20 A2996 RMK A01 T02480202  RH  076%=      5-min Rain = 0
KTH1 040618Z 13002KT 25/20 A2996 RMK A01 T02470202  RH  076%=      5-min Rain = 0
KTH1 040619Z 13002KT 25/20 A2996 RMK A01 T02470203  RH  076%=      5-min Rain = 0
KTH1 040620Z 14002KT 25/20 A2996 RMK A01 T02470202  RH  076%=      5-min Rain = 0
KTH1 040621Z 14002KT 25/20 A2996 RMK A01 T02470202  RH  076%=      5-min Rain = 0
KTH1 040622Z 14002KT 25/20 A2996 RMK A01 T02460202  RH  077%=      5-min Rain = 0
KTH1 040623Z 15002KT 25/20 A2996 RMK A01 T02450202  RH  077%=      5-min Rain = 0
KTH1 040624Z 14002KT 25/20 A2996 RMK A01 T02450202  RH  077%=      5-min Rain = 0
KTH1 040625Z 15002KT 24/20 A2996 RMK A01 T02440202  RH  077%=      5-min Rain = 0
KTH1 040626Z 15002KT 24/20 A2996 RMK A01 T02440202  RH  078%=      5-min Rain = 0
KTH1 040627Z 15002KT 24/20 A2996 RMK A01 T02430203  RH  078%=      5-min Rain = 0
KTH1 040628Z 15002KT 24/20 A2996 RMK A01 T02430202  RH  078%=      5-min Rain = 0
KTH1 040629Z 15002KT 24/20 A2996 RMK A01 T02420202  RH  078%=      5-min Rain = 0
KTH1 040630Z 15002KT 24/20 A2996 RMK A01 T02420203  RH  079%=      5-min Rain = 0
KTH1 040631Z 15003KT 24/20 A2996 RMK A01 T02420203  RH  079%=      5-min Rain = 0
KTH1 040632Z 15002KT 24/20 A2996 RMK A01 T02420203  RH  079%=      5-min Rain = 0
KTH1 040633Z 15002KT 24/20 A2996 RMK A01 T02410203  RH  079%=      5-min Rain = 0
KTH1 040634Z 15002KT 24/20 A2996 RMK A01 T02410203  RH  079%=      5-min Rain = 0
KTH1 040635Z 15002KT 24/20 A2996 RMK A01 T02410203  RH  079%=      5-min Rain = 0
KTH1 040636Z 15001KT 24/20 A2996 RMK A01 T02400203  RH  079%=      5-min Rain = 0
KTH1 040637Z 15002KT 24/20 A2996 RMK A01 T02400203  RH  080%=      5-min Rain = 0
KTH1 040638Z 15001KT 24/20 A2996 RMK A01 T02400203  RH  080%=      5-min Rain = 0
KTH1 040639Z 16001KT 24/20 A2996 RMK A01 T02400203  RH  080%=      5-min Rain = 0
KTH1 040640Z 16000KT 24/20 A2996 RMK A01 T02400203  RH  080%=      5-min Rain = 0
KTH1 040641Z 18000KT 24/20 A2996 RMK A01 T02390203  RH  080%=      5-min Rain = 0
KTH1 040642Z 19000KT 24/20 A2996 RMK A01 T02390203  RH  080%=      5-min Rain = 0
KTH1 040643Z 00000KT 24/20 A2996 RMK A01 T02390203  RH  080%=      5-min Rain = 0
KTH1 040644Z 00000KT 24/20 A2996 RMK A01 T02390203  RH  080%=      5-min Rain = 0
KTH1 040645Z 00000KT 24/20 A2996 RMK A01 T02390203  RH  080%=      5-min Rain = 0
KTH1 040646Z 00000KT 24/20 A2996 RMK A01 T02390204  RH  080%=      5-min Rain = 0
KTH1 040647Z 00000KT 24/20 A2996 RMK A01 T02390203  RH  081%=      5-min Rain = 0
KTH1 040648Z 00000KT 24/20 A2996 RMK A01 T02380203  RH  081%=      5-min Rain = 0
KTH1 040649Z 00000KT 24/20 A2996 RMK A01 T02370203  RH  081%=      5-min Rain = 0
KTH1 040650Z 00000KT 24/20 A2996 RMK A01 T02370204  RH  081%=      5-min Rain = 0
KTH1 040651Z 03000KT 24/20 A2996 RMK A01 T02360203  RH  082%=      5-min Rain = 0
KTH1 040652Z 03000KT 24/20 A2996 RMK A01 T02360203  RH  082%=      5-min Rain = 0
KTH1 040653Z 00000KT 24/20 A2996 RMK A01 T02360203  RH  082%=      5-min Rain = 0
KTH1 040654Z 00000KT 24/20 A2996 RMK A01 T02350203  RH  082%=      5-min Rain = 0
KTH1 040655Z 05000KT 24/20 A2996 RMK A01 T02350203  RH  082%=      5-min Rain = 0
KTH1 040656Z 04000KT 24/20 A2996 RMK A01 T02350203  RH  082%=      5-min Rain = 0
KTH1 040657Z 00000KT 24/20 A2996 RMK A01 T02360204  RH  082%=      5-min Rain = 0
KTH1 040658Z 10000KT 24/20 A2996 RMK A01 T02360204  RH  082%=      5-min Rain = 0
KTH1 040659Z 10000KT 24/20 A2996 RMK A01 T02350204  RH  082%=      5-min Rain = 0
KTH1 040700Z 11000KT 24/20 A2996 RMK A01 T02360204  RH  083%=      5-min Rain = 0
KTH1 040701Z 00000KT 24/20 A2996 RMK A01 T02360204  RH  082%=      5-min Rain = 0
KTH1 040702Z 14001KT 24/20 A2996 RMK A01 T02370204  RH  082%=      5-min Rain = 0
KTH1 040703Z 14000KT 24/20 A2996 RMK A01 T02380203  RH  081%=      5-min Rain = 0
KTH1 040704Z 00000KT 24/20 A2996 RMK A01 T02380203  RH  081%=      5-min Rain = 0
KTH1 040705Z 10000KT 24/20 A2996 RMK A01 T02380204  RH  081%=      5-min Rain = 0
KTH1 040706Z 11001KT 24/20 A2996 RMK A01 T02380203  RH  081%=      5-min Rain = 0
KTH1 040707Z 11001KT 24/20 A2996 RMK A01 T02380203  RH  081%=      5-min Rain = 0
KTH1 040708Z 12002KT 24/20 A2996 RMK A01 T02390203  RH  080%=      5-min Rain = 0
KTH1 040709Z 11002KT 24/20 A2996 RMK A01 T02390203  RH  080%=      5-min Rain = 0
KTH1 040710Z 09002KT 24/20 A2996 RMK A01 T02390204  RH  081%=      5-min Rain = 0
KTH1 040711Z 10002KT 24/20 A2996 RMK A01 T02390204  RH  081%=      5-min Rain = 0
KTH1 040712Z 10002KT 24/20 A2996 RMK A01 T02380204  RH  081%=      5-min Rain = 0
KTH1 040713Z 11002KT 24/20 A2996 RMK A01 T02370204  RH  082%=      5-min Rain = 0
KTH1 040714Z 12002KT 24/20 A2996 RMK A01 T02360203  RH  082%=      5-min Rain = 0
KTH1 040715Z 12002KT 23/20 A2996 RMK A01 T02340203  RH  083%=      5-min Rain = 0
KTH1 040716Z 12002KT 23/20 A2996 RMK A01 T02330203  RH  083%=      5-min Rain = 0
KTH1 040717Z 13003KT 23/20 A2996 RMK A01 T02320203  RH  084%=      5-min Rain = 0
KTH1 040718Z 13002KT 23/20 A2996 RMK A01 T02310203  RH  084%=      5-min Rain = 0
KTH1 040719Z 13002KT 23/20 A2996 RMK A01 T02310203  RH  084%=      5-min Rain = 0
KTH1 040720Z 13002KT 23/20 A2996 RMK A01 T02310203  RH  085%=      5-min Rain = 0
KTH1 040721Z 14002KT 23/20 A2996 RMK A01 T02310203  RH  085%=      5-min Rain = 0
KTH1 040722Z 14003KT 23/20 A2996 RMK A01 T02320203  RH  084%=      5-min Rain = 0
KTH1 040723Z 15002KT 23/20 A2996 RMK A01 T02320203  RH  084%=      5-min Rain = 0
KTH1 040724Z 15002KT 23/20 A2996 RMK A01 T02320203  RH  083%=      5-min Rain = 0
KTH1 040725Z 16002KT 23/20 A2996 RMK A01 T02330203  RH  083%=      5-min Rain = 0
KTH1 040726Z 17001KT 23/20 A2996 RMK A01 T02330203  RH  084%=      5-min Rain = 0
KTH1 040727Z 18001KT 23/20 A2996 RMK A01 T02330203  RH  083%=      5-min Rain = 0
KTH1 040728Z 18002KT 23/20 A2996 RMK A01 T02330203  RH  083%=      5-min Rain = 0
KTH1 040729Z 19002KT 23/20 A2996 RMK A01 T02330203  RH  083%=      5-min Rain = 0
KTH1 040730Z 19002KT 23/20 A2996 RMK A01 T02330203  RH  083%=      5-min Rain = 0
KTH1 040731Z 20003KT 23/20 A2996 RMK A01 T02330202  RH  083%=      5-min Rain = 0
KTH1 040732Z 20002KT 23/20 A2996 RMK A01 T02340202  RH  082%=      5-min Rain = 0
KTH1 040733Z 20002KT 24/20 A2996 RMK A01 T02350202  RH  082%=      5-min Rain = 0
KTH1 040734Z 21002KT 24/20 A2995 RMK A01 T02350202  RH  081%=      5-min Rain = 0
KTH1 040735Z 21002KT 24/20 A2995 RMK A01 T02360202  RH  081%=      5-min Rain = 0
KTH1 040736Z 21002KT 24/20 A2995 RMK A01 T02370201  RH  080%=      5-min Rain = 0
KTH1 040737Z 20002KT 24/20 A2995 RMK A01 T02380201  RH  080%=      5-min Rain = 0
KTH1 040738Z 20002KT 24/20 A2995 RMK A01 T02390200  RH  079%=      5-min Rain = 0
KTH1 040739Z 20002KT 24/20 A2995 RMK A01 T02400200  RH  079%=      5-min Rain = 0
KTH1 040740Z 19002KT 24/20 A2995 RMK A01 T02400199  RH  078%=      5-min Rain = 0
KTH1 040741Z 19002KT 24/20 A2995 RMK A01 T02400198  RH  077%=      5-min Rain = 0
KTH1 040742Z 19002KT 24/20 A2995 RMK A01 T02410198  RH  077%=      5-min Rain = 0
KTH1 040743Z 18001KT 24/20 A2995 RMK A01 T02420198  RH  077%=      5-min Rain = 0
KTH1 040744Z 18001KT 24/20 A2995 RMK A01 T02420199  RH  077%=      5-min Rain = 0
KTH1 040745Z 17002KT 24/20 A2995 RMK A01 T02420200  RH  077%=      5-min Rain = 0
KTH1 040746Z 16002KT 24/20 A2995 RMK A01 T02420201  RH  078%=      5-min Rain = 0
KTH1 040747Z 15002KT 24/20 A2995 RMK A01 T02410201  RH  078%=      5-min Rain = 0
KTH1 040748Z 15002KT 24/20 A2995 RMK A01 T02390201  RH  079%=      5-min Rain = 0
KTH1 040749Z 15002KT 24/20 A2995 RMK A01 T02370201  RH  080%=      5-min Rain = 0
KTH1 040750Z 15001KT 24/20 A2995 RMK A01 T02350201  RH  081%=      5-min Rain = 0
KTH1 040751Z 16002KT 23/20 A2995 RMK A01 T02330201  RH  082%=      5-min Rain = 0
KTH1 040752Z 16002KT 23/20 A2995 RMK A01 T02320201  RH  083%=      5-min Rain = 0
KTH1 040753Z 16002KT 23/20 A2995 RMK A01 T02310201  RH  083%=      5-min Rain = 0
KTH1 040754Z 16002KT 23/20 A2995 RMK A01 T02300201  RH  084%=      5-min Rain = 0
KTH1 040755Z 17001KT 23/20 A2995 RMK A01 T02290201  RH  084%=      5-min Rain = 0
KTH1 040756Z 17001KT 23/20 A2996 RMK A01 T02290201  RH  084%=      5-min Rain = 0
KTH1 040757Z 19001KT 23/20 A2996 RMK A01 T02290201  RH  085%=      5-min Rain = 0
KTH1 040758Z 20001KT 23/20 A2995 RMK A01 T02290201  RH  084%=      5-min Rain = 0
KTH1 040759Z 20001KT 23/20 A2995 RMK A01 T02290202  RH  084%=      5-min Rain = 0
KTH1 040800Z 20001KT 23/20 A2995 RMK A01 T02300201  RH  084%=      5-min Rain = 0
KTH1 040801Z 21002KT 23/20 A2995 RMK A01 T02310200  RH  083%=      5-min Rain = 0
KTH1 040802Z 22002KT 23/20 A2995 RMK A01 T02320199  RH  082%=      5-min Rain = 0
KTH1 040803Z 21002KT 23/20 A2995 RMK A01 T02330198  RH  080%=      5-min Rain = 0
KTH1 040804Z 21002KT 24/20 A2995 RMK A01 T02350197  RH  080%=      5-min Rain = 0
KTH1 040805Z 21002KT 24/20 A2995 RMK A01 T02360198  RH  079%=      5-min Rain = 0
KTH1 040806Z 20002KT 24/20 A2995 RMK A01 T02370197  RH  078%=      5-min Rain = 0
KTH1 040807Z 20002KT 24/20 A2995 RMK A01 T02370196  RH  078%=      5-min Rain = 0
KTH1 040808Z 20002KT 24/20 A2995 RMK A01 T02380195  RH  077%=      5-min Rain = 0
KTH1 040809Z 20002KT 24/19 A2995 RMK A01 T02380194  RH  076%=      5-min Rain = 0
KTH1 040810Z 20002KT 24/19 A2995 RMK A01 T02390194  RH  076%=      5-min Rain = 0
KTH1 040811Z 20002KT 24/19 A2995 RMK A01 T02400194  RH  075%=      5-min Rain = 0
KTH1 040812Z 19002KT 24/19 A2995 RMK A01 T02400194  RH  075%=      5-min Rain = 0
KTH1 040813Z 19002KT 24/19 A2995 RMK A01 T02400193  RH  075%=      5-min Rain = 0
KTH1 040814Z 19002KT 24/19 A2995 RMK A01 T02400193  RH  075%=      5-min Rain = 0
KTH1 040815Z 20001KT 24/19 A2995 RMK A01 T02400193  RH  075%=      5-min Rain = 0
KTH1 040816Z 19001KT 24/19 A2995 RMK A01 T02390193  RH  075%=      5-min Rain = 0
KTH1 040817Z 19001KT 24/19 A2995 RMK A01 T02390192  RH  075%=      5-min Rain = 0
KTH1 040818Z 19001KT 24/19 A2995 RMK A01 T02380193  RH  076%=      5-min Rain = 0
KTH1 040819Z 19001KT 24/19 A2995 RMK A01 T02380192  RH  075%=      5-min Rain = 0
KTH1 040820Z 19001KT 24/19 A2995 RMK A01 T02380192  RH  076%=      5-min Rain = 0
KTH1 040821Z 19001KT 24/19 A2995 RMK A01 T02370192  RH  076%=      5-min Rain = 0
KTH1 040822Z 20001KT 24/19 A2995 RMK A01 T02370192  RH  076%=      5-min Rain = 0
KTH1 040823Z 20001KT 24/19 A2995 RMK A01 T02360193  RH  076%=      5-min Rain = 0
KTH1 040824Z 20002KT 24/19 A2995 RMK A01 T02350193  RH  077%=      5-min Rain = 0
KTH1 040825Z 22002KT 23/19 A2995 RMK A01 T02340191  RH  077%=      5-min Rain = 0
KTH1 040826Z 22002KT 23/19 A2995 RMK A01 T02340192  RH  077%=      5-min Rain = 0
KTH1 040827Z 22001KT 23/19 A2995 RMK A01 T02340194  RH  078%=      5-min Rain = 0
KTH1 040828Z 23001KT 23/20 A2995 RMK A01 T02330197  RH  080%=      5-min Rain = 0
KTH1 040829Z 23001KT 23/20 A2995 RMK A01 T02330197  RH  080%=      5-min Rain = 0
KTH1 040830Z 24001KT 23/20 A2995 RMK A01 T02330196  RH  080%=      5-min Rain = 0
KTH1 040831Z 23001KT 23/20 A2995 RMK A01 T02330200  RH  082%=      5-min Rain = 0
KTH1 040832Z 22002KT 23/21 A2995 RMK A01 T02330205  RH  085%=      5-min Rain = 0
KTH1 040833Z 21003KT 23/21 A2995 RMK A01 T02330206  RH  085%=      5-min Rain = 0
KTH1 040834Z 20003KT 23/21 A2995 RMK A01 T02320205  RH  085%=      5-min Rain = 0
KTH1 040835Z 20003KT 23/20 A2995 RMK A01 T02320200  RH  082%=      5-min Rain = 0
KTH1 040836Z 19002KT 23/20 A2995 RMK A01 T02320196  RH  080%=      5-min Rain = 0
KTH1 040837Z 18002KT 23/19 A2995 RMK A01 T02310192  RH  079%=      5-min Rain = 0
KTH1 040838Z 18002KT 23/19 A2995 RMK A01 T02310191  RH  078%=      5-min Rain = 0
KTH1 040839Z 17002KT 23/19 A2995 RMK A01 T02310191  RH  078%=      5-min Rain = 0
KTH1 040840Z 17002KT 23/19 A2995 RMK A01 T02320191  RH  078%=      5-min Rain = 0
KTH1 040841Z 18002KT 23/19 A2995 RMK A01 T02310191  RH  078%=      5-min Rain = 0
KTH1 040842Z 18002KT 23/19 A2995 RMK A01 T02310191  RH  078%=      5-min Rain = 0
KTH1 040843Z 18003KT 23/19 A2995 RMK A01 T02300191  RH  079%=      5-min Rain = 0
KTH1 040844Z 18003KT 23/19 A2995 RMK A01 T02300191  RH  079%=      5-min Rain = 0
KTH1 040845Z 18003KT 23/19 A2995 RMK A01 T02290191  RH  079%=      5-min Rain = 0
KTH1 040846Z 18003KT 23/19 A2995 RMK A01 T02290190  RH  078%=      5-min Rain = 0
KTH1 040847Z 18002KT 23/19 A2995 RMK A01 T02290190  RH  078%=      5-min Rain = 0
KTH1 040848Z 17002KT 23/19 A2995 RMK A01 T02280189  RH  078%=      5-min Rain = 0
KTH1 040849Z 18002KT 23/19 A2995 RMK A01 T02280189  RH  078%=      5-min Rain = 0
KTH1 040850Z 17002KT 23/19 A2995 RMK A01 T02280189  RH  078%=      5-min Rain = 0
KTH1 040851Z 17002KT 23/19 A2995 RMK A01 T02270188  RH  079%=      5-min Rain = 0
KTH1 040852Z 17003KT 23/19 A2995 RMK A01 T02270188  RH  079%=      5-min Rain = 0
KTH1 040853Z 16003KT 23/19 A2995 RMK A01 T02270189  RH  079%=      5-min Rain = 0
KTH1 040854Z 16002KT 23/19 A2995 RMK A01 T02260189  RH  080%=      5-min Rain = 0
KTH1 040855Z 16003KT 23/19 A2995 RMK A01 T02260190  RH  080%=      5-min Rain = 0
KTH1 040856Z 16002KT 23/19 A2994 RMK A01 T02260190  RH  080%=      5-min Rain = 0
KTH1 040857Z 16002KT 23/19 A2994 RMK A01 T02250190  RH  081%=      5-min Rain = 0
KTH1 040858Z 16002KT 23/19 A2994 RMK A01 T02250191  RH  081%=      5-min Rain = 0
KTH1 040859Z 17002KT 23/19 A2994 RMK A01 T02250191  RH  081%=      5-min Rain = 0
KTH1 040900Z 17002KT 22/19 A2994 RMK A01 T02240191  RH  081%=      5-min Rain = 0
KTH1 040901Z 19002KT 22/19 A2994 RMK A01 T02240191  RH  082%=      5-min Rain = 0
KTH1 040902Z 20002KT 22/19 A2994 RMK A01 T02230191  RH  082%=      5-min Rain = 0
KTH1 040903Z 20002KT 22/19 A2994 RMK A01 T02230191  RH  082%=      5-min Rain = 0
KTH1 040904Z 21002KT 22/19 A2994 RMK A01 T02230191  RH  082%=      5-min Rain = 0
KTH1 040905Z 21002KT 22/19 A2994 RMK A01 T02220190  RH  082%=      5-min Rain = 0
KTH1 040906Z 21002KT 22/19 A2994 RMK A01 T02220188  RH  081%=      5-min Rain = 0
KTH1 040907Z 21002KT 22/19 A2994 RMK A01 T02220187  RH  080%=      5-min Rain = 0
KTH1 040908Z 21002KT 22/19 A2994 RMK A01 T02230187  RH  080%=      5-min Rain = 0
KTH1 040909Z 20002KT 22/19 A2994 RMK A01 T02230186  RH  080%=      5-min Rain = 0
KTH1 040910Z 19002KT 22/18 A2994 RMK A01 T02230184  RH  079%=      5-min Rain = 0
KTH1 040911Z 19002KT 22/18 A2994 RMK A01 T02230183  RH  078%=      5-min Rain = 0
KTH1 040912Z 18002KT 22/18 A2994 RMK A01 T02230184  RH  078%=      5-min Rain = 0
KTH1 040913Z 17002KT 22/18 A2994 RMK A01 T02240184  RH  078%=      5-min Rain = 0
KTH1 040914Z 17002KT 22/18 A2994 RMK A01 T02240184  RH  078%=      5-min Rain = 0
KTH1 040915Z 17002KT 22/19 A2994 RMK A01 T02240186  RH  079%=      5-min Rain = 0
KTH1 040916Z 17002KT 22/19 A2994 RMK A01 T02240186  RH  079%=      5-min Rain = 0
KTH1 040917Z 17002KT 22/19 A2994 RMK A01 T02240186  RH  079%=      5-min Rain = 0
KTH1 040918Z 17002KT 22/19 A2994 RMK A01 T02230185  RH  079%=      5-min Rain = 0
KTH1 040919Z 17001KT 22/19 A2994 RMK A01 T02230185  RH  079%=      5-min Rain = 0
KTH1 040920Z 17002KT 22/19 A2994 RMK A01 T02230185  RH  079%=      5-min Rain = 0
KTH1 040921Z 17002KT 22/18 A2994 RMK A01 T02230184  RH  079%=      5-min Rain = 0
KTH1 040922Z 17002KT 22/18 A2994 RMK A01 T02230184  RH  079%=      5-min Rain = 0
KTH1 040923Z 17002KT 22/18 A2994 RMK A01 T02230184  RH  079%=      5-min Rain = 0
KTH1 040924Z 17002KT 22/19 A2994 RMK A01 T02230185  RH  079%=      5-min Rain = 0
KTH1 040925Z 16002KT 22/19 A2994 RMK A01 T02220185  RH  080%=      5-min Rain = 0
KTH1 040926Z 16002KT 22/19 A2994 RMK A01 T02220186  RH  080%=      5-min Rain = 0
KTH1 040927Z 16003KT 22/19 A2994 RMK A01 T02210186  RH  081%=      5-min Rain = 0
KTH1 040928Z 16002KT 22/19 A2994 RMK A01 T02200187  RH  082%=      5-min Rain = 0
KTH1 040929Z 16003KT 22/19 A2994 RMK A01 T02200188  RH  082%=      5-min Rain = 0
KTH1 040930Z 16003KT 22/19 A2994 RMK A01 T02200189  RH  083%=      5-min Rain = 0
KTH1 040931Z 16003KT 22/19 A2994 RMK A01 T02190189  RH  083%=      5-min Rain = 0
KTH1 040932Z 15003KT 22/19 A2994 RMK A01 T02190189  RH  083%=      5-min Rain = 0
KTH1 040933Z 14003KT 22/19 A2994 RMK A01 T02180188  RH  083%=      5-min Rain = 0
KTH1 040934Z 12002KT 22/19 A2994 RMK A01 T02170189  RH  084%=      5-min Rain = 0
KTH1 040935Z 12002KT 22/19 A2994 RMK A01 T02160190  RH  085%=      5-min Rain = 0
KTH1 040936Z 10002KT 22/19 A2994 RMK A01 T02160191  RH  086%=      5-min Rain = 0
KTH1 040937Z 09002KT 22/19 A2994 RMK A01 T02150191  RH  086%=      5-min Rain = 0
KTH1 040938Z 08002KT 22/19 A2994 RMK A01 T02150191  RH  086%=      5-min Rain = 0
KTH1 040939Z 08002KT 21/19 A2994 RMK A01 T02140190  RH  086%=      5-min Rain = 0
KTH1 040940Z 09001KT 21/19 A2994 RMK A01 T02140189  RH  086%=      5-min Rain = 0
KTH1 040941Z 10001KT 21/19 A2994 RMK A01 T02140190  RH  086%=      5-min Rain = 0
KTH1 040942Z 11001KT 21/19 A2994 RMK A01 T02130190  RH  086%=      5-min Rain = 0
KTH1 040943Z 13001KT 21/19 A2994 RMK A01 T02120189  RH  087%=      5-min Rain = 0
KTH1 040944Z 12002KT 21/19 A2994 RMK A01 T02130189  RH  087%=      5-min Rain = 0
KTH1 040945Z 13002KT 21/19 A2994 RMK A01 T02120189  RH  087%=      5-min Rain = 0
KTH1 040946Z 12002KT 21/19 A2994 RMK A01 T02120188  RH  086%=      5-min Rain = 0
KTH1 040947Z 12002KT 21/19 A2994 RMK A01 T02120185  RH  084%=      5-min Rain = 0
KTH1 040948Z 12002KT 21/19 A2994 RMK A01 T02140185  RH  083%=      5-min Rain = 0
KTH1 040949Z 12002KT 22/19 A2994 RMK A01 T02150185  RH  083%=      5-min Rain = 0
KTH1 040950Z 11002KT 22/19 A2994 RMK A01 T02160185  RH  082%=      5-min Rain = 0
KTH1 040951Z 11002KT 22/18 A2994 RMK A01 T02160184  RH  082%=      5-min Rain = 0
KTH1 040952Z 11002KT 22/18 A2994 RMK A01 T02170183  RH  081%=      5-min Rain = 0
KTH1 040953Z 10002KT 22/18 A2994 RMK A01 T02170183  RH  081%=      5-min Rain = 0
KTH1 040954Z 09002KT 22/18 A2994 RMK A01 T02170183  RH  081%=      5-min Rain = 0
KTH1 040955Z 10002KT 22/19 A2994 RMK A01 T02170185  RH  082%=      5-min Rain = 0
KTH1 040956Z 09001KT 22/19 A2994 RMK A01 T02170188  RH  084%=      5-min Rain = 0
KTH1 040957Z 09001KT 22/19 A2994 RMK A01 T02170186  RH  083%=      5-min Rain = 0
KTH1 040958Z 10001KT 22/19 A2994 RMK A01 T02170188  RH  084%=      5-min Rain = 0
KTH1 040959Z 10001KT 22/19 A2994 RMK A01 T02160187  RH  083%=      5-min Rain = 0
KTH1 041000Z 11000KT 22/19 A2994 RMK A01 T02160189  RH  085%=      5-min Rain = 0
KTH1 041001Z 00000KT 22/19 A2994 RMK A01 T02150190  RH  086%=      5-min Rain = 0
KTH1 041002Z 00000KT 22/19 A2994 RMK A01 T02150191  RH  086%=      5-min Rain = 0
KTH1 041003Z 00000KT 22/19 A2994 RMK A01 T02150191  RH  086%=      5-min Rain = 0
KTH1 041004Z 00000KT 21/19 A2994 RMK A01 T02140192  RH  087%=      5-min Rain = 0
KTH1 041005Z 00000KT 21/19 A2994 RMK A01 T02140193  RH  088%=      5-min Rain = 0
KTH1 041006Z 00000KT 21/19 A2994 RMK A01 T02130194  RH  089%=      5-min Rain = 0
KTH1 041007Z 00000KT 21/20 A2994 RMK A01 T02130195  RH  089%=      5-min Rain = 0
KTH1 041008Z 00000KT 21/20 A2994 RMK A01 T02130195  RH  089%=      5-min Rain = 0
KTH1 041009Z 00000KT 21/20 A2994 RMK A01 T02130195  RH  089%=      5-min Rain = 0
KTH1 041010Z 00000KT 21/19 A2994 RMK A01 T02130193  RH  088%=      5-min Rain = 0
KTH1 041011Z 21000KT 21/19 A2994 RMK A01 T02130192  RH  088%=      5-min Rain = 0
KTH1 041012Z 00000KT 21/19 A2994 RMK A01 T02120189  RH  087%=      5-min Rain = 0
KTH1 041013Z 00000KT 21/19 A2994 RMK A01 T02120188  RH  086%=      5-min Rain = 0
KTH1 041014Z 17001KT 21/19 A2994 RMK A01 T02130189  RH  086%=      5-min Rain = 0
KTH1 041015Z 18000KT 21/19 A2994 RMK A01 T02130188  RH  085%=      5-min Rain = 0
KTH1 041016Z 15000KT 21/19 A2994 RMK A01 T02140189  RH  086%=      5-min Rain = 0
KTH1 041017Z 15001KT 22/19 A2994 RMK A01 T02150189  RH  085%=      5-min Rain = 0
KTH1 041018Z 15002KT 22/19 A2994 RMK A01 T02150190  RH  086%=      5-min Rain = 0
KTH1 041019Z 15003KT 22/19 A2994 RMK A01 T02160190  RH  085%=      5-min Rain = 0
KTH1 041020Z 15003KT 22/19 A2994 RMK A01 T02160191  RH  086%=      5-min Rain = 0
KTH1 041021Z 16004KT 22/19 A2994 RMK A01 T02160192  RH  086%=      5-min Rain = 0
KTH1 041022Z 16004KT 22/19 A2994 RMK A01 T02150191  RH  086%=      5-min Rain = 0
KTH1 041023Z 15004KT 21/19 A2994 RMK A01 T02140189  RH  086%=      5-min Rain = 0
KTH1 041024Z 15004KT 21/19 A2994 RMK A01 T02130188  RH  085%=      5-min Rain = 0
KTH1 041025Z 15004KT 21/19 A2994 RMK A01 T02130188  RH  085%=      5-min Rain = 0
KTH1 041026Z 15004KT 21/19 A2994 RMK A01 T02120186  RH  085%=      5-min Rain = 0
KTH1 041027Z 15004KT 21/18 A2994 RMK A01 T02110183  RH  084%=      5-min Rain = 0
KTH1 041028Z 15004KT 21/18 A2994 RMK A01 T02110181  RH  083%=      5-min Rain = 0
KTH1 041029Z 14003KT 21/18 A2994 RMK A01 T02110181  RH  083%=      5-min Rain = 0
KTH1 041030Z 14003KT 21/18 A2994 RMK A01 T02110180  RH  082%=      5-min Rain = 0
KTH1 041031Z 14003KT 21/18 A2994 RMK A01 T02120180  RH  082%=      5-min Rain = 0
KTH1 041032Z 14003KT 21/18 A2994 RMK A01 T02120180  RH  082%=      5-min Rain = 0
KTH1 041033Z 14003KT 21/18 A2994 RMK A01 T02110180  RH  082%=      5-min Rain = 0
KTH1 041034Z 13002KT 21/18 A2994 RMK A01 T02110182  RH  083%=      5-min Rain = 0
KTH1 041035Z 14002KT 21/18 A2994 RMK A01 T02110183  RH  084%=      5-min Rain = 0
KTH1 041036Z 14002KT 21/18 A2994 RMK A01 T02110183  RH  084%=      5-min Rain = 0
KTH1 041037Z 13002KT 21/18 A2994 RMK A01 T02100183  RH  085%=      5-min Rain = 0
KTH1 041038Z 13002KT 21/18 A2994 RMK A01 T02100183  RH  085%=      5-min Rain = 0
KTH1 041039Z 13002KT 21/18 A2994 RMK A01 T02100182  RH  084%=      5-min Rain = 0
KTH1 041040Z 12002KT 21/18 A2994 RMK A01 T02100182  RH  084%=      5-min Rain = 0
KTH1 041041Z 12002KT 21/18 A2994 RMK A01 T02090181  RH  084%=      5-min Rain = 0
KTH1 041042Z 11002KT 21/18 A2994 RMK A01 T02090180  RH  084%=      5-min Rain = 0
KTH1 041043Z 11002KT 21/18 A2994 RMK A01 T02080179  RH  083%=      5-min Rain = 0
KTH1 041044Z 10002KT 21/18 A2994 RMK A01 T02080179  RH  084%=      5-min Rain = 0
KTH1 041045Z 10002KT 21/18 A2994 RMK A01 T02080180  RH  084%=      5-min Rain = 0
KTH1 041046Z 10002KT 21/18 A2994 RMK A01 T02070180  RH  085%=      5-min Rain = 0
KTH1 041047Z 11003KT 21/18 A2994 RMK A01 T02070183  RH  086%=      5-min Rain = 0
KTH1 041048Z 11003KT 21/18 A2994 RMK A01 T02080184  RH  086%=      5-min Rain = 0
KTH1 041049Z 11003KT 21/19 A2995 RMK A01 T02080185  RH  087%=      5-min Rain = 0
KTH1 041050Z 11002KT 21/19 A2995 RMK A01 T02080188  RH  088%=      5-min Rain = 0
KTH1 041051Z 12002KT 21/19 A2995 RMK A01 T02080189  RH  089%=      5-min Rain = 0
KTH1 041052Z 12002KT 21/19 A2995 RMK A01 T02070189  RH  089%=      5-min Rain = 0
KTH1 041053Z 12002KT 21/19 A2995 RMK A01 T02070189  RH  089%=      5-min Rain = 0
KTH1 041054Z 13003KT 21/19 A2995 RMK A01 T02060189  RH  090%=      5-min Rain = 0
KTH1 041055Z 13003KT 21/19 A2995 RMK A01 T02060188  RH  089%=      5-min Rain = 0
KTH1 041056Z 14004KT 21/18 A2995 RMK A01 T02060184  RH  087%=      5-min Rain = 0
KTH1 041057Z 14004KT 21/18 A2995 RMK A01 T02060181  RH  086%=      5-min Rain = 0
KTH1 041058Z 14004KT 21/18 A2995 RMK A01 T02070180  RH  085%=      5-min Rain = 0
KTH1 041059Z 14004KT 21/18 A2995 RMK A01 T02080180  RH  084%=      5-min Rain = 0
KTH1 041100Z 15004KT 21/18 A2994 RMK A01 T02090180  RH  084%=      5-min Rain = 0
KTH1 041101Z 16004KT 21/18 A2994 RMK A01 T02090181  RH  084%=      5-min Rain = 0
KTH1 041102Z 16004KT 21/18 A2994 RMK A01 T02090180  RH  083%=      5-min Rain = 0
KTH1 041103Z 17004KT 21/18 A2994 RMK A01 T02100180  RH  083%=      5-min Rain = 0
KTH1 041104Z 17004KT 21/18 A2994 RMK A01 T02100179  RH  082%=      5-min Rain = 0
KTH1 041105Z 17004KT 21/18 A2994 RMK A01 T02100178  RH  082%=      5-min Rain = 0
KTH1 041106Z 18004KT 21/18 A2994 RMK A01 T02100178  RH  082%=      5-min Rain = 0
KTH1 041107Z 18004KT 21/18 A2994 RMK A01 T02090178  RH  082%=      5-min Rain = 0
KTH1 041108Z 19004KT 21/18 A2994 RMK A01 T02090178  RH  082%=      5-min Rain = 0
KTH1 041109Z 19004KT 21/18 A2994 RMK A01 T02090177  RH  082%=      5-min Rain = 0
KTH1 041110Z 19004KT 21/18 A2995 RMK A01 T02080176  RH  082%=      5-min Rain = 0
KTH1 041111Z 19003KT 21/18 A2995 RMK A01 T02080176  RH  082%=      5-min Rain = 0
KTH1 041112Z 19004KT 21/18 A2995 RMK A01 T02080175  RH  081%=      5-min Rain = 0
KTH1 041113Z 18004KT 21/17 A2995 RMK A01 T02080174  RH  081%=      5-min Rain = 0
KTH1 041114Z 18003KT 21/17 A2995 RMK A01 T02080173  RH  080%=      5-min Rain = 0
KTH1 041115Z 18004KT 21/17 A2995 RMK A01 T02090172  RH  079%=      5-min Rain = 0
KTH1 041116Z 17004KT 21/17 A2995 RMK A01 T02090172  RH  079%=      5-min Rain = 0
KTH1 041117Z 17004KT 21/17 A2995 RMK A01 T02100172  RH  079%=      5-min Rain = 0
KTH1 041118Z 17004KT 21/17 A2995 RMK A01 T02110173  RH  079%=      5-min Rain = 0
KTH1 041119Z 16004KT 21/17 A2995 RMK A01 T02110173  RH  079%=      5-min Rain = 0
KTH1 041120Z 17003KT 21/17 A2995 RMK A01 T02110174  RH  079%=      5-min Rain = 0
KTH1 041121Z 16003KT 21/18 A2995 RMK A01 T02110175  RH  080%=      5-min Rain = 0
KTH1 041122Z 16003KT 21/17 A2995 RMK A01 T02110174  RH  080%=      5-min Rain = 0
KTH1 041123Z 17003KT 21/18 A2995 RMK A01 T02100175  RH  080%=      5-min Rain = 0
KTH1 041124Z 17003KT 21/17 A2995 RMK A01 T02090174  RH  080%=      5-min Rain = 0
KTH1 041125Z 18003KT 21/17 A2995 RMK A01 T02090174  RH  081%=      5-min Rain = 0
KTH1 041126Z 18003KT 21/17 A2995 RMK A01 T02080174  RH  081%=      5-min Rain = 0
KTH1 041127Z 18002KT 21/17 A2995 RMK A01 T02080174  RH  081%=      5-min Rain = 0
KTH1 041128Z 18002KT 21/17 A2995 RMK A01 T02070173  RH  081%=      5-min Rain = 0
KTH1 041129Z 20002KT 21/17 A2995 RMK A01 T02070172  RH  081%=      5-min Rain = 0
KTH1 041130Z 21002KT 21/17 A2995 RMK A01 T02060171  RH  080%=      5-min Rain = 0
KTH1 041131Z 23002KT 21/17 A2995 RMK A01 T02060170  RH  080%=      5-min Rain = 0
KTH1 041132Z 23002KT 21/17 A2995 RMK A01 T02060169  RH  079%=      5-min Rain = 0
KTH1 041133Z 24002KT 21/17 A2995 RMK A01 T02070167  RH  078%=      5-min Rain = 0
KTH1 041134Z 25003KT 21/17 A2995 RMK A01 T02070168  RH  078%=      5-min Rain = 0
KTH1 041135Z 25003KT 21/17 A2995 RMK A01 T02080168  RH  078%=      5-min Rain = 0
KTH1 041136Z 26002KT 21/17 A2995 RMK A01 T02090170  RH  078%=      5-min Rain = 0
KTH1 041137Z 25003KT 21/17 A2995 RMK A01 T02100174  RH  080%=      5-min Rain = 0
KTH1 041138Z 26003KT 21/18 A2995 RMK A01 T02120177  RH  081%=      5-min Rain = 0
KTH1 041139Z 25003KT 21/18 A2995 RMK A01 T02130178  RH  080%=      5-min Rain = 0
KTH1 041140Z 24004KT 21/18 A2995 RMK A01 T02140177  RH  079%=      5-min Rain = 0
KTH1 041141Z 25004KT 22/17 A2995 RMK A01 T02150173  RH  077%=      5-min Rain = 0
KTH1 041142Z 24004KT 22/18 A2995 RMK A01 T02180175  RH  076%=      5-min Rain = 0
KTH1 041143Z 23004KT 22/17 A2995 RMK A01 T02200172  RH  074%=      5-min Rain = 0
KTH1 041144Z 23005KT 22/17 A2995 RMK A01 T02200169  RH  073%=      5-min Rain = 0
KTH1 041145Z 23004KT 22/17 A2995 RMK A01 T02200168  RH  072%=      5-min Rain = 0
KTH1 041146Z 23004KT 22/17 A2995 RMK A01 T02200168  RH  072%=      5-min Rain = 0
KTH1 041147Z 23005KT 22/17 A2995 RMK A01 T02200168  RH  072%=      5-min Rain = 0
KTH1 041148Z 22004KT 22/17 A2995 RMK A01 T02200168  RH  072%=      5-min Rain = 0
KTH1 041149Z 22004KT 22/17 A2995 RMK A01 T02180166  RH  072%=      5-min Rain = 0
KTH1 041150Z 22005KT 22/17 A2995 RMK A01 T02180165  RH  072%=      5-min Rain = 0
KTH1 041151Z 22005KT 22/17 A2995 RMK A01 T02170165  RH  072%=      5-min Rain = 0
KTH1 041152Z 22005KT 22/17 A2995 RMK A01 T02160165  RH  073%=      5-min Rain = 0
KTH1 041153Z 22005KT 22/17 A2995 RMK A01 T02150165  RH  073%=      5-min Rain = 0
KTH1 041154Z 22005KT 22/16 A2995 RMK A01 T02150164  RH  073%=      5-min Rain = 0
KTH1 041155Z 22005KT 22/17 A2995 RMK A01 T02150165  RH  073%=      5-min Rain = 0
KTH1 041156Z 22004KT 21/17 A2995 RMK A01 T02140165  RH  073%=      5-min Rain = 0
KTH1 041157Z 22005KT 22/17 A2995 RMK A01 T02150165  RH  073%=      5-min Rain = 0
KTH1 041158Z 22005KT 22/17 A2995 RMK A01 T02150165  RH  073%=      5-min Rain = 0
KTH1 041159Z 22005KT 22/17 A2995 RMK A01 T02150166  RH  074%=      5-min Rain = 0
KTH1 041200Z 21005KT 22/17 A2995 RMK A01 T02150166  RH  074%=      5-min Rain = 0
KTH1 041201Z 22005KT 22/17 A2995 RMK A01 T02150166  RH  074%=      5-min Rain = 0
KTH1 041202Z 22005KT 22/17 A2995 RMK A01 T02150166  RH  074%=      5-min Rain = 0
KTH1 041203Z 22005KT 22/17 A2995 RMK A01 T02150166  RH  073%=      5-min Rain = 0
KTH1 041204Z 22004KT 22/17 A2995 RMK A01 T02150166  RH  074%=      5-min Rain = 0
KTH1 041205Z 22005KT 22/17 A2995 RMK A01 T02150166  RH  073%=      5-min Rain = 0
KTH1 041206Z 21004KT 22/17 A2995 RMK A01 T02150166  RH  073%=      5-min Rain = 0
KTH1 041207Z 22004KT 22/17 A2995 RMK A01 T02150166  RH  074%=      5-min Rain = 0
KTH1 041208Z 22004KT 22/17 A2995 RMK A01 T02150167  RH  074%=      5-min Rain = 0
KTH1 041209Z 23004KT 22/17 A2995 RMK A01 T02150168  RH  074%=      5-min Rain = 0
KTH1 041210Z 22005KT 22/17 A2995 RMK A01 T02150167  RH  074%=      5-min Rain = 0
KTH1 041211Z 22004KT 22/17 A2995 RMK A01 T02170167  RH  073%=      5-min Rain = 0
KTH1 041212Z 22004KT 22/17 A2995 RMK A01 T02170168  RH  073%=      5-min Rain = 0
KTH1 041213Z 22004KT 22/17 A2995 RMK A01 T02170168  RH  073%=      5-min Rain = 0
KTH1 041214Z 22004KT 22/17 A2995 RMK A01 T02170168  RH  073%=      5-min Rain = 0
KTH1 041215Z 22005KT 22/17 A2995 RMK A01 T02170169  RH  074%=      5-min Rain = 0
KTH1 041216Z 21005KT 22/17 A2995 RMK A01 T02170168  RH  073%=      5-min Rain = 0
KTH1 041217Z 22004KT 22/17 A2995 RMK A01 T02170167  RH  073%=      5-min Rain = 0
KTH1 041218Z 22005KT 22/17 A2995 RMK A01 T02180168  RH  074%=      5-min Rain = 0
KTH1 041219Z 21006KT 22/17 A2995 RMK A01 T02180167  RH  073%=      5-min Rain = 0
KTH1 041220Z 21005KT 22/17 A2995 RMK A01 T02180167  RH  073%=      5-min Rain = 0
KTH1 041221Z 21005KT 22/17 A2995 RMK A01 T02190169  RH  073%=      5-min Rain = 0
KTH1 041222Z 21006KT 22/17 A2995 RMK A01 T02190168  RH  073%=      5-min Rain = 0
KTH1 041223Z 21006KT 22/17 A2995 RMK A01 T02190168  RH  073%=      5-min Rain = 0
KTH1 041224Z 20006KT 22/17 A2995 RMK A01 T02200169  RH  073%=      5-min Rain = 0
KTH1 041225Z 20005KT 22/17 A2995 RMK A01 T02200169  RH  073%=      5-min Rain = 0
KTH1 041226Z 20005KT 22/17 A2995 RMK A01 T02200170  RH  073%=      5-min Rain = 0
KTH1 041227Z 20006KT 22/17 A2995 RMK A01 T02200169  RH  073%=      5-min Rain = 0
KTH1 041228Z 20005KT 22/17 A2995 RMK A01 T02200169  RH  073%=      5-min Rain = 0
KTH1 041229Z 20005KT 22/17 A2995 RMK A01 T02210169  RH  073%=      5-min Rain = 0
KTH1 041230Z 20006KT 22/17 A2995 RMK A01 T02210169  RH  072%=      5-min Rain = 0
KTH1 041231Z 20005KT 22/17 A2995 RMK A01 T02220169  RH  072%=      5-min Rain = 0
KTH1 041232Z 19006KT 22/17 A2995 RMK A01 T02240170  RH  071%=      5-min Rain = 0
KTH1 041233Z 20006KT 23/17 A2995 RMK A01 T02250169  RH  071%=      5-min Rain = 0
KTH1 041234Z 19005KT 23/17 A2995 RMK A01 T02260169  RH  070%=      5-min Rain = 0
KTH1 041235Z 20005KT 23/17 A2995 RMK A01 T02270168  RH  070%=      5-min Rain = 0
KTH1 041236Z 20005KT 23/17 A2995 RMK A01 T02280169  RH  069%=      5-min Rain = 0
KTH1 041237Z 21004KT 23/17 A2995 RMK A01 T02290169  RH  069%=      5-min Rain = 0
KTH1 041238Z 20005KT 23/17 A2995 RMK A01 T02300170  RH  069%=      5-min Rain = 0
KTH1 041239Z 20005KT 23/17 A2995 RMK A01 T02310169  RH  068%=      5-min Rain = 0
KTH1 041240Z 21005KT 23/17 A2995 RMK A01 T02310170  RH  068%=      5-min Rain = 0
KTH1 041241Z 20005KT 23/17 A2995 RMK A01 T02320170  RH  068%=      5-min Rain = 0
KTH1 041242Z 21005KT 23/17 A2995 RMK A01 T02330170  RH  068%=      5-min Rain = 0
KTH1 041243Z 20005KT 23/17 A2995 RMK A01 T02330171  RH  068%=      5-min Rain = 0
KTH1 041244Z 20005KT 23/17 A2996 RMK A01 T02330170  RH  068%=      5-min Rain = 0
KTH1 041245Z 20004KT 23/17 A2996 RMK A01 T02340172  RH  068%=      5-min Rain = 0
KTH1 041246Z 20004KT 23/17 A2996 RMK A01 T02340172  RH  068%=      5-min Rain = 0
KTH1 041247Z 20005KT 23/17 A2996 RMK A01 T02340172  RH  068%=      5-min Rain = 0
KTH1 041248Z 19005KT 24/17 A2995 RMK A01 T02350173  RH  068%=      5-min Rain = 0
KTH1 041249Z 20005KT 24/17 A2995 RMK A01 T02350174  RH  069%=      5-min Rain = 0
KTH1 041250Z 20005KT 24/17 A2995 RMK A01 T02360172  RH  068%=      5-min Rain = 0
KTH1 041251Z 21004KT 24/17 A2996 RMK A01 T02360171  RH  067%=      5-min Rain = 0
KTH1 041252Z 20004KT 24/17 A2996 RMK A01 T02370173  RH  067%=      5-min Rain = 0
KTH1 041253Z 21004KT 24/17 A2996 RMK A01 T02380174  RH  068%=      5-min Rain = 0
KTH1 041254Z 22004KT 24/17 A2996 RMK A01 T02380173  RH  067%=      5-min Rain = 0
KTH1 041255Z 21004KT 24/17 A2996 RMK A01 T02390173  RH  067%=      5-min Rain = 0
KTH1 041256Z 22004KT 24/18 A2996 RMK A01 T02390175  RH  067%=      5-min Rain = 0
KTH1 041257Z 22005KT 24/17 A2996 RMK A01 T02400173  RH  066%=      5-min Rain = 0
KTH1 041258Z 22003KT 24/18 A2996 RMK A01 T02400175  RH  067%=      5-min Rain = 0
KTH1 041259Z 23004KT 24/17 A2996 RMK A01 T02410174  RH  066%=      5-min Rain = 0
KTH1 041300Z 23003KT 24/17 A2996 RMK A01 T02410174  RH  066%=      5-min Rain = 0
KTH1 041301Z 23003KT 24/17 A2996 RMK A01 T02420174  RH  066%=      5-min Rain = 0
KTH1 041302Z 23004KT 24/17 A2996 RMK A01 T02420174  RH  066%=      5-min Rain = 0
KTH1 041303Z 22003KT 24/17 A2996 RMK A01 T02420174  RH  066%=      5-min Rain = 0
KTH1 041304Z 21004KT 24/17 A2996 RMK A01 T02420173  RH  065%=      5-min Rain = 0
KTH1 041305Z 21003KT 24/17 A2996 RMK A01 T02430173  RH  065%=      5-min Rain = 0
KTH1 041306Z 21003KT 24/18 A2996 RMK A01 T02430175  RH  066%=      5-min Rain = 0
KTH1 041307Z 21001KT 24/17 A2996 RMK A01 T02440174  RH  065%=      5-min Rain = 0
KTH1 041308Z 20003KT 24/18 A2996 RMK A01 T02440178  RH  067%=      5-min Rain = 0
KTH1 041309Z 20002KT 25/18 A2996 RMK A01 T02450176  RH  065%=      5-min Rain = 0
KTH1 041310Z 20002KT 25/18 A2996 RMK A01 T02460176  RH  065%=      5-min Rain = 0
KTH1 041311Z 20003KT 25/18 A2996 RMK A01 T02470177  RH  065%=      5-min Rain = 0
KTH1 041312Z 20003KT 25/18 A2996 RMK A01 T02470175  RH  064%=      5-min Rain = 0
KTH1 041313Z 20004KT 25/18 A2996 RMK A01 T02480176  RH  064%=      5-min Rain = 0
KTH1 041314Z 21002KT 25/18 A2996 RMK A01 T02480177  RH  065%=      5-min Rain = 0
KTH1 041315Z 21003KT 25/18 A2996 RMK A01 T02480176  RH  064%=      5-min Rain = 0
KTH1 041316Z 22003KT 25/18 A2996 RMK A01 T02480176  RH  064%=      5-min Rain = 0
KTH1 041317Z 21004KT 25/18 A2997 RMK A01 T02490178  RH  064%=      5-min Rain = 0
KTH1 041318Z 21003KT 25/18 A2997 RMK A01 T02490176  RH  064%=      5-min Rain = 0
KTH1 041319Z 22004KT 25/18 A2997 RMK A01 T02500177  RH  064%=      5-min Rain = 0
KTH1 041320Z 25004KT 25/18 A2997 RMK A01 T02500176  RH  064%=      5-min Rain = 0
KTH1 041321Z 25004KT 25/18 A2997 RMK A01 T02510176  RH  063%=      5-min Rain = 0
KTH1 041322Z 25003KT 25/18 A2997 RMK A01 T02510178  RH  064%=      5-min Rain = 0
KTH1 041323Z 26004KT 25/18 A2997 RMK A01 T02510177  RH  063%=      5-min Rain = 0
KTH1 041324Z 26004KT 25/18 A2997 RMK A01 T02520179  RH  064%=      5-min Rain = 0
KTH1 041325Z 25004KT 25/18 A2997 RMK A01 T02520179  RH  064%=      5-min Rain = 0
KTH1 041326Z 25005KT 25/18 A2996 RMK A01 T02530183  RH  065%=      5-min Rain = 0
KTH1 041327Z 25006KT 25/18 A2996 RMK A01 T02530182  RH  065%=      5-min Rain = 0
KTH1 041328Z 23006KT 25/18 A2996 RMK A01 T02540182  RH  065%=      5-min Rain = 0
KTH1 041329Z 24006KT 25/18 A2996 RMK A01 T02540180  RH  063%=      5-min Rain = 0
KTH1 041330Z 24005KT 25/18 A2996 RMK A01 T02540180  RH  064%=      5-min Rain = 0
KTH1 041331Z 24006KT 26/18 A2996 RMK A01 T02550181  RH  064%=      5-min Rain = 0
KTH1 041332Z 24006KT 26/18 A2996 RMK A01 T02550181  RH  064%=      5-min Rain = 0
KTH1 041333Z 23004KT 26/18 A2996 RMK A01 T02550180  RH  063%=      5-min Rain = 0
KTH1 041334Z 23004KT 26/18 A2996 RMK A01 T02550181  RH  064%=      5-min Rain = 0
KTH1 041335Z 23006KT 26/18 A2996 RMK A01 T02560179  RH  062%=      5-min Rain = 0
KTH1 041336Z 23005KT 26/18 A2996 RMK A01 T02560178  RH  062%=      5-min Rain = 0
KTH1 041337Z 21003KT 26/18 A2996 RMK A01 T02560181  RH  063%=      5-min Rain = 0
KTH1 041338Z 22005KT 26/18 A2996 RMK A01 T02570180  RH  062%=      5-min Rain = 0
KTH1 041339Z 22005KT 26/18 A2996 RMK A01 T02590181  RH  062%=      5-min Rain = 0
KTH1 041340Z 23005KT 26/18 A2996 RMK A01 T02590179  RH  061%=      5-min Rain = 0
KTH1 041341Z 23004KT 26/18 A2996 RMK A01 T02600182  RH  062%=      5-min Rain = 0
KTH1 041342Z 23005KT 26/18 A2996 RMK A01 T02610182  RH  062%=      5-min Rain = 0
KTH1 041343Z 23005KT 26/18 A2996 RMK A01 T02610181  RH  061%=      5-min Rain = 0
KTH1 041344Z 23005KT 26/18 A2996 RMK A01 T02620182  RH  061%=      5-min Rain = 0
KTH1 041345Z 23006KT 26/18 A2996 RMK A01 T02620182  RH  061%=      5-min Rain = 0
KTH1 041346Z 23005KT 26/18 A2996 RMK A01 T02630181  RH  061%=      5-min Rain = 0
KTH1 041347Z 23005KT 26/18 A2996 RMK A01 T02640182  RH  061%=      5-min Rain = 0
KTH1 041348Z 23004KT 26/18 A2996 RMK A01 T02640182  RH  061%=      5-min Rain = 0
KTH1 041349Z 23005KT 27/18 A2996 RMK A01 T02650184  RH  061%=      5-min Rain = 0
KTH1 041350Z 24005KT 27/18 A2996 RMK A01 T02650184  RH  061%=      5-min Rain = 0
KTH1 041351Z 25005KT 27/19 A2996 RMK A01 T02660186  RH  062%=      5-min Rain = 0
KTH1 041352Z 23005KT 27/19 A2996 RMK A01 T02670185  RH  061%=      5-min Rain = 0
KTH1 041353Z 24005KT 27/19 A2996 RMK A01 T02690187  RH  061%=      5-min Rain = 0
KTH1 041354Z 24008KT 27/19 A2996 RMK A01 T02700185  RH  060%=      5-min Rain = 0
KTH1 041355Z 24007KT 27/18 A2996 RMK A01 T02700182  RH  058%=      5-min Rain = 0
KTH1 041356Z 24006KT 27/19 A2996 RMK A01 T02710186  RH  060%=      5-min Rain = 0
KTH1 041357Z 25004KT 27/19 A2996 RMK A01 T02720187  RH  060%=      5-min Rain = 0
KTH1 041358Z 25006KT 27/19 A2996 RMK A01 T02720189  RH  060%=      5-min Rain = 0
KTH1 041359Z 25007KT 27/19 A2996 RMK A01 T02730186  RH  059%=      5-min Rain = 0
KTH1 041400Z 25007KT 27/18 A2996 RMK A01 T02740184  RH  058%=      5-min Rain = 0
KTH1 041401Z 25009KT 28/18 A2996 RMK A01 T02750181  RH  056%=      5-min Rain = 0
KTH1 041402Z 25010KT 28/19 A2996 RMK A01 T02760188  RH  059%=      5-min Rain = 0
KTH1 041403Z 25010KT 28/18 A2996 RMK A01 T02770182  RH  056%=      5-min Rain = 0
KTH1 041404Z 26009KT 28/19 A2996 RMK A01 T02780187  RH  058%=      5-min Rain = 0
KTH1 041405Z 26006KT 28/19 A2996 RMK A01 T02790190  RH  059%=      5-min Rain = 0
KTH1 041406Z 26007KT 28/19 A2996 RMK A01 T02800193  RH  059%=      5-min Rain = 0
KTH1 041407Z 25009KT 28/19 A2996 RMK A01 T02810188  RH  057%=      5-min Rain = 0
KTH1 041408Z 24008KT 28/19 A2996 RMK A01 T02810186  RH  056%=      5-min Rain = 0
KTH1 041409Z 25008KT 28/19 A2996 RMK A01 T02800186  RH  057%=      5-min Rain = 0
KTH1 041410Z 25008KT 28/18 A2996 RMK A01 T02790184  RH  056%=      5-min Rain = 0
KTH1 041411Z 24006KT 28/19 A2996 RMK A01 T02790188  RH  058%=      5-min Rain = 0
KTH1 041412Z 25008KT 28/18 A2996 RMK A01 T02790184  RH  056%=      5-min Rain = 0
KTH1 041413Z 26008KT 28/19 A2996 RMK A01 T02790185  RH  057%=      5-min Rain = 0
KTH1 041414Z 25007KT 28/19 A2996 RMK A01 T02800188  RH  057%=      5-min Rain = 0
KTH1 041415Z 25007KT 28/19 A2996 RMK A01 T02810185  RH  056%=      5-min Rain = 0
KTH1 041416Z 24007KT 28/19 A2996 RMK A01 T02810186  RH  056%=      5-min Rain = 0
KTH1 041417Z 24008KT 28/18 A2996 RMK A01 T02810184  RH  056%=      5-min Rain = 0
KTH1 041418Z 24008KT 28/19 A2996 RMK A01 T02810185  RH  056%=      5-min Rain = 0
KTH1 041419Z 24009KT 28/18 A2996 RMK A01 T02820181  RH  054%=      5-min Rain = 0
KTH1 041420Z 24007KT 28/19 A2996 RMK A01 T02830186  RH  056%=      5-min Rain = 0
KTH1 041421Z 24010KT 28/18 A2996 RMK A01 T02840180  RH  053%=      5-min Rain = 0
KTH1 041422Z 23007KT 29/18 A2996 RMK A01 T02850178  RH  052%=      5-min Rain = 0
KTH1 041423Z 23007KT 29/18 A2996 RMK A01 T02850179  RH  053%=      5-min Rain = 0
KTH1 041424Z 24007KT 29/18 A2996 RMK A01 T02860179  RH  052%=      5-min Rain = 0
KTH1 041425Z 23005KT 29/18 A2996 RMK A01 T02860183  RH  054%=      5-min Rain = 0
KTH1 041426Z 24007KT 29/18 A2996 RMK A01 T02880184  RH  053%=      5-min Rain = 0
KTH1 041427Z 23009KT 29/18 A2996 RMK A01 T02890176  RH  051%=      5-min Rain = 0
KTH1 041428Z 25009KT 29/18 A2996 RMK A01 T02890177  RH  051%=      5-min Rain = 0
KTH1 041429Z 25009KT 29/18 A2996 RMK A01 T02890181  RH  052%=      5-min Rain = 0
KTH1 041430Z 25009KT 29/18 A2996 RMK A01 T02890181  RH  052%=      5-min Rain = 0
KTH1 041431Z 24006KT 29/18 A2996 RMK A01 T02890183  RH  053%=      5-min Rain = 0
KTH1 041432Z 25009KT 29/18 A2996 RMK A01 T02900179  RH  051%=      5-min Rain = 0
KTH1 041433Z 25007KT 29/18 A2996 RMK A01 T02900184  RH  053%=      5-min Rain = 0
KTH1 041434Z 25008KT 29/19 A2996 RMK A01 T02910187  RH  053%=      5-min Rain = 0
KTH1 041435Z 25007KT 29/19 A2996 RMK A01 T02920185  RH  052%=      5-min Rain = 0
KTH1 041436Z 24008KT 29/19 A2996 RMK A01 T02930185  RH  052%=      5-min Rain = 0
KTH1 041437Z 25008KT 29/19 A2996 RMK A01 T02940185  RH  052%=      5-min Rain = 0
KTH1 041438Z 25010KT 29/19 A2996 RMK A01 T02940185  RH  052%=      5-min Rain = 0
KTH1 041439Z 26007KT 30/19 A2996 RMK A01 T02950189  RH  053%=      5-min Rain = 0
KTH1 041440Z 26007KT 30/19 A2996 RMK A01 T02960186  RH  052%=      5-min Rain = 0
KTH1 041441Z 26008KT 30/18 A2996 RMK A01 T02970184  RH  051%=      5-min Rain = 0
KTH1 041442Z 26009KT 30/19 A2996 RMK A01 T02980186  RH  051%=      5-min Rain = 0
KTH1 041443Z 26010KT 30/19 A2996 RMK A01 T03000186  RH  051%=      5-min Rain = 0
KTH1 041444Z 26009KT 30/18 A2996 RMK A01 T03010182  RH  049%=      5-min Rain = 0
KTH1 041445Z 25010KT 30/18 A2996 RMK A01 T03010181  RH  049%=      5-min Rain = 0
KTH1 041446Z 25009KT 30/18 A2996 RMK A01 T03010178  RH  048%=      5-min Rain = 0
KTH1 041447Z 24007KT 30/18 A2996 RMK A01 T03010182  RH  049%=      5-min Rain = 0
KTH1 041448Z 25009KT 30/18 A2996 RMK A01 T03010178  RH  048%=      5-min Rain = 0
KTH1 041449Z 26008KT 30/19 A2996 RMK A01 T03010189  RH  051%=      5-min Rain = 0
KTH1 041450Z 26009KT 30/18 A2996 RMK A01 T03020183  RH  049%=      5-min Rain = 0
KTH1 041451Z 26010KT 30/18 A2996 RMK A01 T03030182  RH  048%=      5-min Rain = 0
KTH1 041452Z 27006KT 31/19 A2996 RMK A01 T03050186  RH  049%=      5-min Rain = 0
KTH1 041453Z 27003KT 31/19 A2996 RMK A01 T03060192  RH  051%=      5-min Rain = 0
KTH1 041454Z 27007KT 31/19 A2996 RMK A01 T03090191  RH  049%=      5-min Rain = 0
KTH1 041455Z 27006KT 31/19 A2996 RMK A01 T03100188  RH  048%=      5-min Rain = 0
KTH1 041456Z 29005KT 31/19 A2996 RMK A01 T03100187  RH  048%=      5-min Rain = 0
KTH1 041457Z 26007KT 31/18 A2996 RMK A01 T03090184  RH  047%=      5-min Rain = 0
KTH1 041458Z 26007KT 31/18 A2996 RMK A01 T03090183  RH  047%=      5-min Rain = 0
KTH1 041459Z 26008KT 31/18 A2996 RMK A01 T03090184  RH  047%=      5-min Rain = 0
KTH1 041500Z 27008KT 31/18 A2996 RMK A01 T03100181  RH  046%=      5-min Rain = 0
KTH1 041501Z 26006KT 31/18 A2996 RMK A01 T03100181  RH  046%=      5-min Rain = 0
KTH1 041502Z 27005KT 31/18 A2997 RMK A01 T03110180  RH  046%=      5-min Rain = 0
KTH1 041503Z 26007KT 31/18 A2996 RMK A01 T03110181  RH  046%=      5-min Rain = 0
KTH1 041504Z 28007KT 31/18 A2996 RMK A01 T03110182  RH  046%=      5-min Rain = 0
KTH1 041505Z 26006KT 31/18 A2996 RMK A01 T03110183  RH  046%=      5-min Rain = 0
KTH1 041506Z 27008KT 31/18 A2996 RMK A01 T03120177  RH  045%=      5-min Rain = 0
KTH1 041507Z 26007KT 31/18 A2996 RMK A01 T03120175  RH  044%=      5-min Rain = 0
KTH1 041508Z 26009KT 31/18 A2996 RMK A01 T03110183  RH  046%=      5-min Rain = 0
KTH1 041509Z 26005KT 31/19 A2997 RMK A01 T03120185  RH  047%=      5-min Rain = 0
KTH1 041510Z 26007KT 31/19 A2997 RMK A01 T03130185  RH  047%=      5-min Rain = 0
KTH1 041511Z 26006KT 31/18 A2997 RMK A01 T03130182  RH  046%=      5-min Rain = 0
KTH1 041512Z 25006KT 31/19 A2997 RMK A01 T03130185  RH  046%=      5-min Rain = 0
KTH1 041513Z 27005KT 31/19 A2997 RMK A01 T03140187  RH  047%=      5-min Rain = 0
KTH1 041514Z 29005KT 32/19 A2997 RMK A01 T03150187  RH  047%=      5-min Rain = 0
KTH1 041515Z 28007KT 31/18 A2997 RMK A01 T03140184  RH  046%=      5-min Rain = 0
KTH1 041516Z 29006KT 31/18 A2997 RMK A01 T03140178  RH  044%=      5-min Rain = 0
KTH1 041517Z 28006KT 31/18 A2997 RMK A01 T03140176  RH  044%=      5-min Rain = 0
KTH1 041518Z 27004KT 31/18 A2997 RMK A01 T03140180  RH  045%=      5-min Rain = 0
KTH1 041519Z 27006KT 32/18 A2997 RMK A01 T03160177  RH  044%=      5-min Rain = 0
KTH1 041520Z 28006KT 32/18 A2997 RMK A01 T03160182  RH  045%=      5-min Rain = 0
KTH1 041521Z 28007KT 32/19 A2997 RMK A01 T03160185  RH  046%=      5-min Rain = 0
KTH1 041522Z 28007KT 32/18 A2997 RMK A01 T03160182  RH  045%=      5-min Rain = 0
KTH1 041523Z 28010KT 32/18 A2997 RMK A01 T03150181  RH  045%=      5-min Rain = 0
KTH1 041524Z 28008KT 32/18 A2997 RMK A01 T03150179  RH  044%=      5-min Rain = 0
KTH1 041525Z 30012KT 32/18 A2997 RMK A01 T03150180  RH  045%=      5-min Rain = 0
KTH1 041526Z 30011KT 32/18 A2997 RMK A01 T03160175  RH  043%=      5-min Rain = 0
KTH1 041527Z 29009KT 32/18 A2997 RMK A01 T03150175  RH  043%=      5-min Rain = 0
KTH1 041528Z 27007KT 32/18 A2997 RMK A01 T03150177  RH  044%=      5-min Rain = 0
KTH1 041529Z 28007KT 31/18 A2997 RMK A01 T03140181  RH  045%=      5-min Rain = 0
KTH1 041530Z 30012KT 31/17 A2997 RMK A01 T03140173  RH  043%=      5-min Rain = 0
KTH1 041531Z 30011KT 31/17 A2997 RMK A01 T03140169  RH  042%=      5-min Rain = 0
KTH1 041532Z 29009KT 31/17 A2997 RMK A01 T03140171  RH  042%=      5-min Rain = 0
KTH1 041533Z 29009KT 31/18 A2997 RMK A01 T03140175  RH  043%=      5-min Rain = 0
KTH1 041534Z 29007KT 31/17 A2997 RMK A01 T03140174  RH  043%=      5-min Rain = 0
KTH1 041535Z 29007KT 32/18 A2997 RMK A01 T03160176  RH  043%=      5-min Rain = 0
KTH1 041536Z 28006KT 32/17 A2997 RMK A01 T03170174  RH  042%=      5-min Rain = 0
KTH1 041537Z 30008KT 32/17 A2997 RMK A01 T03170174  RH  043%=      5-min Rain = 0
KTH1 041538Z 29005KT 32/18 A2997 RMK A01 T03180182  RH  044%=      5-min Rain = 0
KTH1 041539Z 27005KT 32/18 A2997 RMK A01 T03190178  RH  043%=      5-min Rain = 0
KTH1 041540Z 27006KT 32/18 A2997 RMK A01 T03200183  RH  044%=      5-min Rain = 0
KTH1 041541Z 26006G11KT 32/18 A2997 RMK A01 T03210184  RH  044%=      5-min Rain = 0
KTH1 041542Z 26008KT 32/19 A2997 RMK A01 T03230187  RH  045%=      5-min Rain = 0
KTH1 041543Z 28008KT 32/19 A2997 RMK A01 T03230185  RH  044%=      5-min Rain = 0
KTH1 041544Z 30009KT 32/18 A2997 RMK A01 T03230181  RH  043%=      5-min Rain = 0
KTH1 041545Z 29009KT 32/18 A2997 RMK A01 T03230179  RH  043%=      5-min Rain = 0
KTH1 041546Z 28007KT 32/18 A2997 RMK A01 T03210180  RH  043%=      5-min Rain = 0
KTH1 041547Z 30010KT 32/18 A2997 RMK A01 T03210183  RH  044%=      5-min Rain = 0
KTH1 041548Z 31009KT 32/18 A2997 RMK A01 T03200181  RH  044%=      5-min Rain = 0
KTH1 041549Z 31007KT 32/18 A2997 RMK A01 T03200176  RH  042%=      5-min Rain = 0
KTH1 041550Z 28007KT 32/18 A2997 RMK A01 T03200180  RH  044%=      5-min Rain = 0
KTH1 041551Z 28006KT 32/19 A2997 RMK A01 T03200187  RH  045%=      5-min Rain = 0
KTH1 041552Z 29008KT 32/18 A2997 RMK A01 T03210182  RH  044%=      5-min Rain = 0
KTH1 041553Z 29009KT 32/19 A2997 RMK A01 T03220185  RH  044%=      5-min Rain = 0
KTH1 041554Z 29010KT 32/18 A2997 RMK A01 T03230182  RH  043%=      5-min Rain = 0
KTH1 041555Z 30009KT 32/18 A2997 RMK A01 T03220182  RH  043%=      5-min Rain = 0
KTH1 041556Z 30007KT 32/18 A2997 RMK A01 T03220180  RH  043%=      5-min Rain = 0
KTH1 041557Z 28008KT 32/18 A2997 RMK A01 T03220183  RH  044%=      5-min Rain = 0
KTH1 041558Z 28006KT 32/18 A2997 RMK A01 T03220182  RH  044%=      5-min Rain = 0
KTH1 041559Z 29007KT 32/18 A2997 RMK A01 T03230182  RH  043%=      5-min Rain = 0
KTH1 041600Z 32007KT 32/18 A2997 RMK A01 T03230179  RH  042%=      5-min Rain = 0
KTH1 041601Z 29006KT 32/18 A2997 RMK A01 T03220177  RH  042%=      5-min Rain = 0
KTH1 041602Z 31007KT 32/17 A2997 RMK A01 T03210174  RH  041%=      5-min Rain = 0
KTH1 041603Z 28007KT 32/18 A2997 RMK A01 T03210183  RH  044%=      5-min Rain = 0
KTH1 041604Z 28006KT 32/18 A2997 RMK A01 T03220180  RH  043%=      5-min Rain = 0
KTH1 041605Z 29009KT 32/19 A2997 RMK A01 T03220185  RH  044%=      5-min Rain = 0
KTH1 041606Z 28010KT 32/18 A2997 RMK A01 T03230179  RH  042%=      5-min Rain = 0
KTH1 041607Z 28006KT 32/18 A2997 RMK A01 T03220180  RH  043%=      5-min Rain = 0
KTH1 041608Z 29010KT 32/18 A2997 RMK A01 T03220184  RH  044%=      5-min Rain = 0
KTH1 041609Z 30010KT 32/18 A2997 RMK A01 T03230183  RH  044%=      5-min Rain = 0
KTH1 041610Z 31010KT 32/18 A2997 RMK A01 T03230176  RH  042%=      5-min Rain = 0
KTH1 041611Z 30008KT 32/18 A2997 RMK A01 T03230180  RH  043%=      5-min Rain = 0
KTH1 041612Z 29009KT 32/18 A2997 RMK A01 T03230182  RH  043%=      5-min Rain = 0
KTH1 041613Z 29010KT 32/18 A2997 RMK A01 T03230181  RH  043%=      5-min Rain = 0
KTH1 041614Z 29009KT 32/18 A2997 RMK A01 T03230180  RH  042%=      5-min Rain = 0
KTH1 041615Z 30010KT 32/18 A2997 RMK A01 T03240183  RH  043%=      5-min Rain = 0
KTH1 041616Z 30008KT 33/18 A2997 RMK A01 T03250182  RH  043%=      5-min Rain = 0
KTH1 041617Z 28005KT 33/19 A2997 RMK A01 T03250188  RH  044%=      5-min Rain = 0
KTH1 041618Z 28007KT 33/19 A2997 RMK A01 T03260185  RH  043%=      5-min Rain = 0
KTH1 041619Z 29008KT 33/18 A2997 RMK A01 T03260183  RH  043%=      5-min Rain = 0
KTH1 041620Z 32007KT 33/18 A2997 RMK A01 T03260179  RH  042%=      5-min Rain = 0
KTH1 041621Z 33006KT 33/18 A2997 RMK A01 T03260177  RH  041%=      5-min Rain = 0
KTH1 041622Z 33007KT 33/18 A2997 RMK A01 T03260177  RH  041%=      5-min Rain = 0
KTH1 041623Z 32007KT 33/18 A2997 RMK A01 T03270176  RH  041%=      5-min Rain = 0
KTH1 041624Z 32008KT 33/18 A2997 RMK A01 T03280175  RH  040%=      5-min Rain = 0
KTH1 041625Z 33006KT 33/18 A2997 RMK A01 T03290176  RH  040%=      5-min Rain = 0
KTH1 041626Z 33006KT 33/18 A2997 RMK A01 T03300178  RH  040%=      5-min Rain = 0
KTH1 041627Z 32007KT 33/18 A2998 RMK A01 T03310180  RH  041%=      5-min Rain = 0
KTH1 041628Z 31008KT 33/18 A2998 RMK A01 T03310177  RH  040%=      5-min Rain = 0
KTH1 041629Z 32005KT 33/18 A2998 RMK A01 T03310179  RH  040%=      5-min Rain = 0
KTH1 041630Z 32008KT 33/18 A2998 RMK A01 T03310177  RH  040%=      5-min Rain = 0
KTH1 041631Z 32007KT 33/18 A2998 RMK A01 T03310179  RH  041%=      5-min Rain = 0
KTH1 041632Z 31007KT 33/18 A2998 RMK A01 T03300176  RH  040%=      5-min Rain = 0
KTH1 041633Z 30008KT 33/17 A2998 RMK A01 T03300172  RH  039%=      5-min Rain = 0
KTH1 041634Z 31007KT 33/18 A2998 RMK A01 T03300179  RH  041%=      5-min Rain = 0
KTH1 041635Z 32008KT 33/17 A2998 RMK A01 T03300174  RH  040%=      5-min Rain = 0
KTH1 041636Z 33006KT 33/18 A2998 RMK A01 T03310178  RH  040%=      5-min Rain = 0
KTH1 041637Z 31006KT 33/18 A2998 RMK A01 T03320178  RH  040%=      5-min Rain = 0
KTH1 041638Z 31008KT 33/18 A2998 RMK A01 T03320180  RH  041%=      5-min Rain = 0
KTH1 041639Z 30005KT 33/18 A2998 RMK A01 T03310175  RH  040%=      5-min Rain = 0
KTH1 041640Z 29007KT 33/18 A2997 RMK A01 T03310181  RH  041%=      5-min Rain = 0
KTH1 041641Z 30006KT 33/18 A2997 RMK A01 T03320179  RH  040%=      5-min Rain = 0
KTH1 041642Z 32005KT 33/18 A2997 RMK A01 T03330182  RH  041%=      5-min Rain = 0
KTH1 041643Z 34004KT 33/18 A2997 RMK A01 T03330184  RH  041%=      5-min Rain = 0
KTH1 041644Z 36003KT 33/18 A2997 RMK A01 T03330179  RH  040%=      5-min Rain = 0
KTH1 041645Z 36004KT 33/18 A2997 RMK A01 T03340180  RH  040%=      5-min Rain = 0
KTH1 041646Z 34005KT 34/18 A2997 RMK A01 T03360182  RH  040%=      5-min Rain = 0
KTH1 041647Z 33004KT 34/18 A2997 RMK A01 T03360179  RH  039%=      5-min Rain = 0
KTH1 041648Z 35004KT 34/19 A2997 RMK A01 T03360185  RH  041%=      5-min Rain = 0
KTH1 041649Z 01006KT 34/18 A2997 RMK A01 T03380178  RH  039%=      5-min Rain = 0
KTH1 041650Z 02005KT 34/18 A2997 RMK A01 T03360180  RH  040%=      5-min Rain = 0
KTH1 041651Z 31005KT 34/18 A2997 RMK A01 T03360183  RH  040%=      5-min Rain = 0
KTH1 041652Z 33004KT 34/18 A2997 RMK A01 T03360184  RH  041%=      5-min Rain = 0
KTH1 041653Z 32004KT 34/18 A2997 RMK A01 T03360181  RH  040%=      5-min Rain = 0
KTH1 041654Z 32003KT 34/18 A2997 RMK A01 T03360182  RH  040%=      5-min Rain = 0
KTH1 041655Z 33005KT 34/18 A2997 RMK A01 T03380180  RH  039%=      5-min Rain = 0
KTH1 041656Z 34006KT 34/18 A2997 RMK A01 T03380176  RH  038%=      5-min Rain = 0
KTH1 041657Z 32004KT 34/18 A2997 RMK A01 T03370180  RH  039%=      5-min Rain = 0
KTH1 041658Z 33004KT 34/19 A2997 RMK A01 T03380187  RH  041%=      5-min Rain = 0
KTH1 041659Z 31005KT 34/19 A2997 RMK A01 T03400185  RH  040%=      5-min Rain = 0
KTH1 041700Z 34003KT 34/19 A2997 RMK A01 T03410187  RH  040%=      5-min Rain = 0
KTH1 041701Z 32005KT 34/18 A2997 RMK A01 T03420178  RH  038%=      5-min Rain = 0
KTH1 041702Z 33003KT 34/18 A2997 RMK A01 T03400178  RH  038%=      5-min Rain = 0
KTH1 041703Z 00004KT 34/18 A2997 RMK A01 T03390179  RH  039%=      5-min Rain = 0
KTH1 041704Z 01004KT 34/18 A2997 RMK A01 T03380176  RH  038%=      5-min Rain = 0
KTH1 041705Z 36005KT 34/18 A2997 RMK A01 T03380179  RH  039%=      5-min Rain = 0
KTH1 041706Z 36007KT 34/18 A2997 RMK A01 T03380177  RH  038%=      5-min Rain = 0
KTH1 041707Z 35005KT 34/18 A2997 RMK A01 T03380178  RH  039%=      5-min Rain = 0
KTH1 041708Z 01006KT 34/18 A2997 RMK A01 T03380176  RH  038%=      5-min Rain = 0
KTH1 041709Z 36006KT 34/18 A2997 RMK A01 T03380180  RH  039%=      5-min Rain = 0
KTH1 041710Z 34005KT 34/18 A2997 RMK A01 T03390182  RH  040%=      5-min Rain = 0
KTH1 041711Z 34004KT 34/18 A2997 RMK A01 T03390175  RH  038%=      5-min Rain = 0
KTH1 041712Z 33004KT 34/18 A2997 RMK A01 T03390176  RH  038%=      5-min Rain = 0
KTH1 041713Z 32004KT 34/18 A2997 RMK A01 T03380180  RH  039%=      5-min Rain = 0
KTH1 041714Z 33003KT 34/18 A2997 RMK A01 T03390182  RH  039%=      5-min Rain = 0
KTH1 041715Z 32004KT 34/18 A2997 RMK A01 T03390177  RH  038%=      5-min Rain = 0
KTH1 041716Z 31003KT 34/18 A2997 RMK A01 T03390175  RH  038%=      5-min Rain = 0
KTH1 041717Z 31003KT 34/17 A2997 RMK A01 T03390174  RH  038%=      5-min Rain = 0
KTH1 041718Z 31003KT 34/18 A2997 RMK A01 T03390176  RH  038%=      5-min Rain = 0
KTH1 041719Z 32005KT 34/18 A2997 RMK A01 T03380176  RH  038%=      5-min Rain = 0
KTH1 041720Z 33005KT 34/18 A2997 RMK A01 T03370179  RH  039%=      5-min Rain = 0
KTH1 041721Z 32004KT 34/18 A2997 RMK A01 T03370178  RH  039%=      5-min Rain = 0
KTH1 041722Z 33005KT 34/19 A2997 RMK A01 T03370185  RH  040%=      5-min Rain = 0
KTH1 041723Z 33004KT 34/18 A2997 RMK A01 T03390181  RH  039%=      5-min Rain = 0
KTH1 041724Z 30003KT 34/18 A2997 RMK A01 T03400179  RH  038%=      5-min Rain = 0
KTH1 041725Z 30002KT 34/18 A2997 RMK A01 T03400176  RH  038%=      5-min Rain = 0
KTH1 041726Z 31005KT 34/18 A2997 RMK A01 T03390181  RH  039%=      5-min Rain = 0
KTH1 041727Z 32004KT 34/18 A2997 RMK A01 T03390180  RH  039%=      5-min Rain = 0
KTH1 041728Z 29003KT 34/18 A2997 RMK A01 T03400182  RH  039%=      5-min Rain = 0
KTH1 041729Z 29002KT 34/18 A2997 RMK A01 T03400182  RH  039%=      5-min Rain = 0
KTH1 041730Z 30002KT 34/19 A2997 RMK A01 T03410186  RH  040%=      5-min Rain = 0
KTH1 041731Z 31001KT 34/18 A2997 RMK A01 T03420182  RH  039%=      5-min Rain = 0
KTH1 041732Z 26001KT 34/19 A2997 RMK A01 T03440185  RH  039%=      5-min Rain = 0
KTH1 041733Z 00001KT 35/18 A2997 RMK A01 T03450184  RH  039%=      5-min Rain = 0
KTH1 041734Z 35002KT 35/18 A2997 RMK A01 T03470184  RH  038%=      5-min Rain = 0
KTH1 041735Z 04003KT 35/18 A2997 RMK A01 T03480184  RH  038%=      5-min Rain = 0
KTH1 041736Z 01002KT 35/19 A2997 RMK A01 T03470186  RH  039%=      5-min Rain = 0
KTH1 041737Z 33002KT 35/19 A2997 RMK A01 T03480190  RH  039%=      5-min Rain = 0
KTH1 041738Z 33002KT 35/19 A2997 RMK A01 T03500185  RH  038%=      5-min Rain = 0
KTH1 041739Z 00004KT 35/19 A2997 RMK A01 T03490186  RH  038%=      5-min Rain = 0
KTH1 041740Z 03003KT 35/19 A2997 RMK A01 T03490187  RH  039%=      5-min Rain = 0
KTH1 041741Z 00004KT 35/18 A2997 RMK A01 T03500180  RH  037%=      5-min Rain = 0
KTH1 041742Z 35002KT 35/18 A2997 RMK A01 T03480181  RH  037%=      5-min Rain = 0
KTH1 041743Z 02002KT 35/18 A2997 RMK A01 T03470176  RH  036%=      5-min Rain = 0
KTH1 041744Z 02002KT 35/18 A2997 RMK A01 T03450181  RH  038%=      5-min Rain = 0
KTH1 041745Z 08003KT 35/18 A2997 RMK A01 T03450181  RH  038%=      5-min Rain = 0
KTH1 041746Z 08004KT 35/18 A2997 RMK A01 T03470182  RH  038%=      5-min Rain = 0
KTH1 041747Z 06003KT 35/18 A2997 RMK A01 T03480181  RH  037%=      5-min Rain = 0
KTH1 041748Z 04004KT 35/18 A2997 RMK A01 T03490177  RH  036%=      5-min Rain = 0
KTH1 041749Z 02004KT 35/17 A2997 RMK A01 T03470172  RH  035%=      5-min Rain = 0
KTH1 041750Z 03002KT 35/17 A2997 RMK A01 T03450172  RH  036%=      5-min Rain = 0
KTH1 041751Z 35002KT 34/17 A2997 RMK A01 T03440174  RH  037%=      5-min Rain = 0
KTH1 041752Z 35005KT 34/18 A2997 RMK A01 T03440182  RH  038%=      5-min Rain = 0
KTH1 041753Z 34004KT 35/18 A2997 RMK A01 T03470182  RH  038%=      5-min Rain = 0
KTH1 041754Z 34003KT 35/19 A2997 RMK A01 T03480185  RH  038%=      5-min Rain = 0
KTH1 041755Z 34003KT 35/19 A2997 RMK A01 T03480185  RH  038%=      5-min Rain = 0
KTH1 041756Z 33003KT 35/19 A2997 RMK A01 T03490186  RH  038%=      5-min Rain = 0
KTH1 041757Z 32003KT 35/19 A2997 RMK A01 T03490187  RH  038%=      5-min Rain = 0
KTH1 041758Z 01002KT 35/19 A2997 RMK A01 T03500187  RH  038%=      5-min Rain = 0
KTH1 041759Z 03005KT 35/18 A2997 RMK A01 T03510176  RH  036%=      5-min Rain = 0
KTH1 041800Z 35006KT 35/18 A2997 RMK A01 T03510178  RH  036%=      5-min Rain = 0
KTH1 041801Z 36005KT 35/18 A2997 RMK A01 T03500177  RH  036%=      5-min Rain = 0
KTH1 041802Z 34004KT 35/19 A2997 RMK A01 T03490185  RH  038%=      5-min Rain = 0
KTH1 041803Z 34005KT 35/18 A2997 RMK A01 T03500184  RH  038%=      5-min Rain = 0
KTH1 041804Z 34004KT 35/19 A2997 RMK A01 T03510186  RH  038%=      5-min Rain = 0
KTH1 041805Z 34003KT 35/19 A2997 RMK A01 T03520188  RH  038%=      5-min Rain = 0
KTH1 041806Z 33003KT 35/18 A2997 RMK A01 T03530184  RH  037%=      5-min Rain = 0
KTH1 041807Z 32003KT 35/18 A2997 RMK A01 T03530178  RH  036%=      5-min Rain = 0
KTH1 041808Z 34004KT 35/19 A2997 RMK A01 T03510186  RH  038%=      5-min Rain = 0
KTH1 041809Z 36004KT 35/18 A2997 RMK A01 T03510182  RH  037%=      5-min Rain = 0
KTH1 041810Z 32003KT 35/18 A2997 RMK A01 T03490178  RH  036%=      5-min Rain = 0
KTH1 041811Z 30003KT 35/18 A2997 RMK A01 T03490182  RH  037%=      5-min Rain = 0
KTH1 041812Z 29002KT 35/18 A2997 RMK A01 T03490183  RH  037%=      5-min Rain = 0
KTH1 041813Z 08004KT 35/19 A2996 RMK A01 T03510187  RH  038%=      5-min Rain = 0
KTH1 041814Z 07005KT 35/19 A2996 RMK A01 T03540187  RH  038%=      5-min Rain = 0
KTH1 041815Z 07005KT 36/18 A2996 RMK A01 T03550183  RH  036%=      5-min Rain = 0
KTH1 041816Z 06004KT 35/19 A2996 RMK A01 T03530189  RH  038%=      5-min Rain = 0
KTH1 041817Z 07005KT 35/19 A2996 RMK A01 T03540188  RH  038%=      5-min Rain = 0
KTH1 041818Z 06006KT 35/18 A2996 RMK A01 T03540183  RH  037%=      5-min Rain = 0
KTH1 041819Z 05004KT 35/19 A2996 RMK A01 T03530186  RH  037%=      5-min Rain = 0
KTH1 041820Z 02004KT 35/18 A2996 RMK A01 T03530180  RH  036%=      5-min Rain = 0
KTH1 041821Z 04004KT 35/18 A2996 RMK A01 T03520183  RH  037%=      5-min Rain = 0
KTH1 041822Z 03003KT 35/18 A2996 RMK A01 T03500180  RH  037%=      5-min Rain = 0
KTH1 041823Z 02003KT 35/18 A2996 RMK A01 T03500183  RH  037%=      5-min Rain = 0
KTH1 041824Z 36004KT 35/18 A2996 RMK A01 T03520181  RH  036%=      5-min Rain = 0
KTH1 041825Z 35003KT 35/18 A2996 RMK A01 T03520183  RH  037%=      5-min Rain = 0
KTH1 041826Z 01003KT 35/18 A2996 RMK A01 T03510183  RH  037%=      5-min Rain = 0
KTH1 041827Z 05004KT 35/19 A2996 RMK A01 T03510185  RH  038%=      5-min Rain = 0
KTH1 041828Z 07005KT 35/19 A2996 RMK A01 T03510189  RH  039%=      5-min Rain = 0
KTH1 041829Z 08004KT 35/19 A2996 RMK A01 T03520186  RH  038%=      5-min Rain = 0
KTH1 041830Z 09004KT 35/19 A2996 RMK A01 T03520187  RH  038%=      5-min Rain = 0
KTH1 041831Z 10004KT 35/18 A2996 RMK A01 T03530183  RH  037%=      5-min Rain = 0
KTH1 041832Z 09006KT 35/19 A2996 RMK A01 T03520189  RH  038%=      5-min Rain = 0
KTH1 041833Z 09005KT 35/19 A2996 RMK A01 T03530186  RH  038%=      5-min Rain = 0
KTH1 041834Z 09002KT 35/18 A2996 RMK A01 T03530180  RH  036%=      5-min Rain = 0
KTH1 041835Z 13002KT 35/18 A2996 RMK A01 T03510179  RH  036%=      5-min Rain = 0
KTH1 041836Z 05004KT 35/18 A2996 RMK A01 T03500183  RH  037%=      5-min Rain = 0
KTH1 041837Z 02004KT 35/19 A2996 RMK A01 T03500190  RH  039%=      5-min Rain = 0
KTH1 041838Z 03004KT 35/19 A2996 RMK A01 T03530185  RH  037%=      5-min Rain = 0
KTH1 041839Z 05003KT 35/18 A2996 RMK A01 T03530183  RH  037%=      5-min Rain = 0
KTH1 041840Z 03003KT 35/18 A2996 RMK A01 T03520178  RH  036%=      5-min Rain = 0
KTH1 041841Z 07005KT 35/18 A2996 RMK A01 T03510182  RH  037%=      5-min Rain = 0
KTH1 041842Z 05003KT 35/18 A2996 RMK A01 T03510181  RH  037%=      5-min Rain = 0
KTH1 041843Z 06006KT 35/18 A2996 RMK A01 T03510180  RH  037%=      5-min Rain = 0
KTH1 041844Z 06006KT 35/18 A2996 RMK A01 T03510184  RH  037%=      5-min Rain = 0
KTH1 041845Z 04003KT 35/19 A2996 RMK A01 T03520185  RH  038%=      5-min Rain = 0
KTH1 041846Z 04001KT 35/18 A2996 RMK A01 T03530180  RH  036%=      5-min Rain = 0
KTH1 041847Z 07003KT 35/18 A2996 RMK A01 T03530182  RH  036%=      5-min Rain = 0
KTH1 041848Z 06003KT 35/18 A2996 RMK A01 T03540182  RH  036%=      5-min Rain = 0
KTH1 041849Z 03003KT 36/18 A2995 RMK A01 T03560183  RH  036%=      5-min Rain = 0
KTH1 041850Z 01003KT 36/19 A2995 RMK A01 T03560185  RH  037%=      5-min Rain = 0
KTH1 041851Z 02003KT 36/19 A2995 RMK A01 T03570187  RH  037%=      5-min Rain = 0
KTH1 041852Z 07004KT 36/19 A2995 RMK A01 T03570185  RH  037%=      5-min Rain = 0
KTH1 041853Z 06006KT 36/19 A2995 RMK A01 T03570188  RH  037%=      5-min Rain = 0
KTH1 041854Z 06006KT 36/19 A2995 RMK A01 T03560187  RH  037%=      5-min Rain = 0
KTH1 041855Z 02003KT 36/18 A2995 RMK A01 T03560182  RH  036%=      5-min Rain = 0
KTH1 041856Z 04004KT 36/18 A2995 RMK A01 T03550184  RH  037%=      5-min Rain = 0
KTH1 041857Z 06005KT 35/19 A2995 RMK A01 T03540186  RH  037%=      5-min Rain = 0
KTH1 041858Z 03004KT 36/18 A2995 RMK A01 T03550180  RH  036%=      5-min Rain = 0
KTH1 041859Z 07003KT 35/18 A2995 RMK A01 T03540183  RH  036%=      5-min Rain = 0
KTH1 041900Z 06002KT 35/17 A2995 RMK A01 T03540171  RH  034%=      5-min Rain = 0
KTH1 041901Z 05004KT 35/18 A2995 RMK A01 T03540177  RH  035%=      5-min Rain = 0
KTH1 041902Z 07005KT 36/18 A2995 RMK A01 T03550182  RH  036%=      5-min Rain = 0
KTH1 041903Z 10005KT 36/18 A2995 RMK A01 T03570181  RH  035%=      5-min Rain = 0
KTH1 041904Z 09004KT 36/18 A2995 RMK A01 T03580182  RH  036%=      5-min Rain = 0
KTH1 041905Z 10003KT 36/18 A2995 RMK A01 T03590181  RH  035%=      5-min Rain = 0
KTH1 041906Z 10003KT 36/18 A2995 RMK A01 T03600177  RH  034%=      5-min Rain = 0
KTH1 041907Z 12003KT 36/18 A2995 RMK A01 T03590176  RH  034%=      5-min Rain = 0
KTH1 041908Z 13004KT 36/18 A2995 RMK A01 T03560179  RH  035%=      5-min Rain = 0
KTH1 041909Z 11004KT 36/18 A2995 RMK A01 T03560184  RH  036%=      5-min Rain = 0
KTH1 041910Z 11005KT 36/18 A2994 RMK A01 T03570184  RH  036%=      5-min Rain = 0
KTH1 041911Z 12003KT 36/19 A2994 RMK A01 T03590191  RH  037%=      5-min Rain = 0
KTH1 041912Z 10003KT 36/19 A2994 RMK A01 T03630187  RH  036%=      5-min Rain = 0
KTH1 041913Z 07005KT 36/19 A2994 RMK A01 T03640187  RH  036%=      5-min Rain = 0
KTH1 041914Z 07002KT 36/19 A2994 RMK A01 T03640189  RH  036%=      5-min Rain = 0
KTH1 041915Z 09004KT 36/19 A2994 RMK A01 T03640191  RH  037%=      5-min Rain = 0
KTH1 041916Z 08005KT 37/19 A2994 RMK A01 T03650191  RH  036%=      5-min Rain = 0
KTH1 041917Z 09006KT 36/19 A2994 RMK A01 T03640188  RH  036%=      5-min Rain = 0
KTH1 041918Z 08005KT 36/18 A2994 RMK A01 T03620183  RH  035%=      5-min Rain = 0
KTH1 041919Z 08003KT 36/18 A2994 RMK A01 T03590183  RH  036%=      5-min Rain = 0
KTH1 041920Z 03001KT 36/19 A2994 RMK A01 T03580187  RH  037%=      5-min Rain = 0
KTH1 041921Z 11003KT 36/19 A2994 RMK A01 T03580187  RH  037%=      5-min Rain = 0
KTH1 041922Z 10004KT 36/19 A2994 RMK A01 T03590185  RH  036%=      5-min Rain = 0
KTH1 041923Z 10005KT 36/19 A2994 RMK A01 T03590186  RH  036%=      5-min Rain = 0
KTH1 041924Z 10007KT 36/18 A2994 RMK A01 T03600184  RH  036%=      5-min Rain = 0
KTH1 041925Z 10006KT 36/18 A2994 RMK A01 T03590183  RH  036%=      5-min Rain = 0
KTH1 041926Z 10005KT 36/19 A2994 RMK A01 T03580185  RH  036%=      5-min Rain = 0
KTH1 041927Z 10006KT 36/18 A2994 RMK A01 T03590181  RH  035%=      5-min Rain = 0
KTH1 041928Z 11007KT 36/18 A2994 RMK A01 T03610178  RH  034%=      5-min Rain = 0
KTH1 041929Z 11006KT 36/18 A2994 RMK A01 T03600181  RH  035%=      5-min Rain = 0
KTH1 041930Z 11005KT 36/18 A2994 RMK A01 T03600177  RH  034%=      5-min Rain = 0
KTH1 041931Z 10003KT 36/18 A2994 RMK A01 T03590178  RH  035%=      5-min Rain = 0
KTH1 041932Z 10002KT 36/18 A2994 RMK A01 T03580181  RH  035%=      5-min Rain = 0
KTH1 041933Z 15003KT 36/18 A2994 RMK A01 T03600183  RH  035%=      5-min Rain = 0
KTH1 041934Z 12003KT 36/18 A2994 RMK A01 T03620175  RH  033%=      5-min Rain = 0
KTH1 041935Z 10005KT 36/18 A2994 RMK A01 T03620181  RH  035%=      5-min Rain = 0
KTH1 041936Z 09007KT 36/18 A2994 RMK A01 T03610182  RH  035%=      5-min Rain = 0
KTH1 041937Z 10006KT 36/18 A2994 RMK A01 T03610180  RH  034%=      5-min Rain = 0
KTH1 041938Z 06006KT 36/18 A2994 RMK A01 T03600179  RH  035%=      5-min Rain = 0
KTH1 041939Z 07005KT 36/18 A2994 RMK A01 T03590178  RH  034%=      5-min Rain = 0
KTH1 041940Z 06002KT 36/18 A2994 RMK A01 T03590175  RH  034%=      5-min Rain = 0
KTH1 041941Z 06002KT 36/18 A2994 RMK A01 T03600179  RH  034%=      5-min Rain = 0
KTH1 041942Z 08004KT 36/18 A2994 RMK A01 T03630181  RH  034%=      5-min Rain = 0
KTH1 041943Z 07004KT 36/18 A2993 RMK A01 T03630179  RH  034%=      5-min Rain = 0
KTH1 041944Z 04003KT 36/18 A2993 RMK A01 T03630179  RH  034%=      5-min Rain = 0
KTH1 041945Z 05003KT 36/18 A2993 RMK A01 T03600180  RH  035%=      5-min Rain = 0
KTH1 041946Z 10005KT 36/19 A2993 RMK A01 T03610186  RH  036%=      5-min Rain = 0
KTH1 041947Z 11005KT 36/19 A2993 RMK A01 T03630186  RH  035%=      5-min Rain = 0
KTH1 041948Z 10005KT 37/18 A2993 RMK A01 T03660183  RH  034%=      5-min Rain = 0
KTH1 041949Z 12006KT 37/18 A2993 RMK A01 T03680175  RH  032%=      5-min Rain = 0
KTH1 041950Z 09004KT 37/17 A2993 RMK A01 T03680170  RH  031%=      5-min Rain = 0
KTH1 041951Z 11007KT 37/17 A2993 RMK A01 T03670174  RH  032%=      5-min Rain = 0
KTH1 041952Z 12007KT 37/17 A2993 RMK A01 T03670170  RH  031%=      5-min Rain = 0
KTH1 041953Z 11005KT 36/17 A2993 RMK A01 T03640169  RH  032%=      5-min Rain = 0
KTH1 041954Z 09003KT 36/17 A2993 RMK A01 T03620170  RH  032%=      5-min Rain = 0
KTH1 041955Z 12004KT 36/17 A2993 RMK A01 T03620172  RH  033%=      5-min Rain = 0
KTH1 041956Z 10006KT 36/17 A2993 RMK A01 T03640172  RH  032%=      5-min Rain = 0
KTH1 041957Z 10007KT 37/17 A2993 RMK A01 T03660167  RH  031%=      5-min Rain = 0
KTH1 041958Z 11004KT 37/17 A2993 RMK A01 T03670167  RH  031%=      5-min Rain = 0
KTH1 041959Z 09003KT 37/17 A2993 RMK A01 T03680172  RH  032%=      5-min Rain = 0
KTH1 042000Z 12003KT 37/17 A2993 RMK A01 T03700168  RH  030%=      5-min Rain = 0
KTH1 042001Z 12002KT 37/17 A2993 RMK A01 T03720170  RH  031%=      5-min Rain = 0
KTH1 042002Z 09004KT 37/17 A2993 RMK A01 T03730170  RH  030%=      5-min Rain = 0
KTH1 042003Z 10006KT 37/17 A2993 RMK A01 T03710171  RH  031%=      5-min Rain = 0
KTH1 042004Z 09005KT 37/18 A2993 RMK A01 T03690178  RH  033%=      5-min Rain = 0
KTH1 042005Z 09009KT 37/18 A2993 RMK A01 T03700182  RH  033%=      5-min Rain = 0
KTH1 042006Z 10006KT 37/18 A2993 RMK A01 T03710176  RH  032%=      5-min Rain = 0
KTH1 042007Z 09002KT 37/17 A2993 RMK A01 T03690167  RH  030%=      5-min Rain = 0
KTH1 042008Z 07003KT 37/17 A2993 RMK A01 T03680173  RH  032%=      5-min Rain = 0
KTH1 042009Z 06003KT 37/17 A2993 RMK A01 T03670171  RH  031%=      5-min Rain = 0
KTH1 042010Z 05003KT 37/18 A2993 RMK A01 T03670175  RH  032%=      5-min Rain = 0
KTH1 042011Z 07006KT 37/18 A2993 RMK A01 T03670179  RH  033%=      5-min Rain = 0
KTH1 042012Z 09004KT 37/18 A2993 RMK A01 T03690180  RH  033%=      5-min Rain = 0
KTH1 042013Z 07004G9KT 37/18 A2993 RMK A01 T03710184  RH  033%=      5-min Rain = 0
KTH1 042014Z 07008KT 38/18 A2993 RMK A01 T03750182  RH  033%=      5-min Rain = 0
KTH1 042015Z 08007KT 37/18 A2993 RMK A01 T03740181  RH  032%=      5-min Rain = 0
KTH1 042016Z 08006KT 37/18 A2992 RMK A01 T03720184  RH  033%=      5-min Rain = 0
KTH1 042017Z 08004KT 37/18 A2992 RMK A01 T03720181  RH  033%=      5-min Rain = 0
KTH1 042018Z 06002KT 37/17 A2992 RMK A01 T03710172  RH  031%=      5-min Rain = 0
KTH1 042019Z 10002KT 37/17 A2992 RMK A01 T03700173  RH  032%=      5-min Rain = 0
KTH1 042020Z 10006KT 37/18 A2992 RMK A01 T03690178  RH  033%=      5-min Rain = 0
KTH1 042021Z 07004KT 37/18 A2992 RMK A01 T03700175  RH  032%=      5-min Rain = 0
KTH1 042022Z 10005KT 37/18 A2992 RMK A01 T03710176  RH  032%=      5-min Rain = 0
KTH1 042023Z 10007KT 37/18 A2992 RMK A01 T03720176  RH  032%=      5-min Rain = 0
KTH1 042024Z 12006KT 37/17 A2992 RMK A01 T03720174  RH  031%=      5-min Rain = 0
KTH1 042025Z 12005KT 37/18 A2992 RMK A01 T03710177  RH  032%=      5-min Rain = 0
KTH1 042026Z 14004KT 37/18 A2992 RMK A01 T03710180  RH  033%=      5-min Rain = 0
KTH1 042027Z 10005KT 37/18 A2992 RMK A01 T03730182  RH  033%=      5-min Rain = 0
KTH1 042028Z 11007KT 38/18 A2992 RMK A01 T03760178  RH  032%=      5-min Rain = 0
KTH1 042029Z 10008KT 38/17 A2992 RMK A01 T03760171  RH  030%=      5-min Rain = 0
KTH1 042030Z 12005KT 37/17 A2992 RMK A01 T03730168  RH  030%=      5-min Rain = 0
KTH1 042031Z 11008KT 37/17 A2992 RMK A01 T03720167  RH  030%=      5-min Rain = 0
KTH1 042032Z 13008KT 37/16 A2992 RMK A01 T03710161  RH  029%=      5-min Rain = 0
KTH1 042033Z 13005KT 37/16 A2992 RMK A01 T03690160  RH  029%=      5-min Rain = 0
KTH1 042034Z 12005KT 37/16 A2992 RMK A01 T03690164  RH  030%=      5-min Rain = 0
KTH1 042035Z 13006KT 37/17 A2992 RMK A01 T03700169  RH  031%=      5-min Rain = 0
KTH1 042036Z 12005KT 37/16 A2992 RMK A01 T03730161  RH  029%=      5-min Rain = 0
KTH1 042037Z 12005KT 37/17 A2992 RMK A01 T03740168  RH  030%=      5-min Rain = 0
KTH1 042038Z 13006KT 37/16 A2992 RMK A01 T03740162  RH  029%=      5-min Rain = 0
KTH1 042039Z 13006KT 38/17 A2992 RMK A01 T03750167  RH  029%=      5-min Rain = 0
KTH1 042040Z 12007KT 38/17 A2992 RMK A01 T03760167  RH  029%=      5-min Rain = 0
KTH1 042041Z 13003KT 38/17 A2992 RMK A01 T03760165  RH  029%=      5-min Rain = 0
KTH1 042042Z 14003KT 38/16 A2991 RMK A01 T03760163  RH  029%=      5-min Rain = 0
KTH1 042043Z 16002KT 38/16 A2991 RMK A01 T03750164  RH  029%=      5-min Rain = 0
KTH1 042044Z 14002KT 38/16 A2991 RMK A01 T03750162  RH  028%=      5-min Rain = 0
KTH1 042045Z 12006KT 38/17 A2991 RMK A01 T03770166  RH  029%=      5-min Rain = 0
KTH1 042046Z 12006KT 38/17 A2991 RMK A01 T03780168  RH  029%=      5-min Rain = 0
KTH1 042047Z 11007KT 38/16 A2991 RMK A01 T03780162  RH  028%=      5-min Rain = 0
KTH1 042048Z 11005KT 38/16 A2991 RMK A01 T03760160  RH  028%=      5-min Rain = 0
KTH1 042049Z 14005KT 37/16 A2991 RMK A01 T03740162  RH  029%=      5-min Rain = 0
KTH1 042050Z 15004KT 37/16 A2991 RMK A01 T03740159  RH  028%=      5-min Rain = 0
KTH1 042051Z 15004KT 37/16 A2991 RMK A01 T03740157  RH  028%=      5-min Rain = 0
KTH1 042052Z 15003KT 37/16 A2991 RMK A01 T03740157  RH  028%=      5-min Rain = 0
KTH1 042053Z 16006G11KT 37/15 A2991 RMK A01 T03740151  RH  027%=      5-min Rain = 0
KTH1 042054Z 15008KT 37/16 A2991 RMK A01 T03730158  RH  028%=      5-min Rain = 0
KTH1 042055Z 13005KT 37/16 A299 RMK A01 T03720162  RH  029%=      5-min Rain = 0
KTH1 042056Z 12003KT 37/16 A299 RMK A01 T03720164  RH  029%=      5-min Rain = 0
KTH1 042057Z 13002KT 37/16 A299 RMK A01 T03740162  RH  029%=      5-min Rain = 0
KTH1 042058Z 10004KT 38/16 A299 RMK A01 T03750160  RH  028%=      5-min Rain = 0
KTH1 042059Z 09005KT 38/16 A299 RMK A01 T03760160  RH  028%=      5-min Rain = 0
KTH1 042100Z 09003KT 38/16 A299 RMK A01 T03760156  RH  027%=      5-min Rain = 0
KTH1 042101Z 10004KT 38/16 A299 RMK A01 T03750162  RH  029%=      5-min Rain = 0
KTH1 042102Z 08005KT 38/15 A299 RMK A01 T03760150  RH  026%=      5-min Rain = 0
KTH1 042103Z 05003KT 38/15 A299 RMK A01 T03750154  RH  027%=      5-min Rain = 0
KTH1 042104Z 06004KT 37/15 A299 RMK A01 T03740154  RH  027%=      5-min Rain = 0
KTH1 042105Z 09005KT 37/16 A299 RMK A01 T03730163  RH  029%=      5-min Rain = 0
KTH1 042106Z 07004KT 37/17 A299 RMK A01 T03730169  RH  030%=      5-min Rain = 0
KTH1 042107Z 09003KT 37/16 A299 RMK A01 T03730163  RH  029%=      5-min Rain = 0
KTH1 042108Z 08001KT 37/16 A299 RMK A01 T03720156  RH  028%=      5-min Rain = 0
KTH1 042109Z 08000KT 37/15 A2989 RMK A01 T03720150  RH  027%=      5-min Rain = 0
KTH1 042110Z 08003KT 37/16 A2989 RMK A01 T03710156  RH  028%=      5-min Rain = 0
KTH1 042111Z 15003KT 37/16 A2989 RMK A01 T03720163  RH  029%=      5-min Rain = 0
KTH1 042112Z 15002KT 37/17 A2989 RMK A01 T03740166  RH  029%=      5-min Rain = 0
KTH1 042113Z 12007KT 38/16 A2989 RMK A01 T03760164  RH  029%=      5-min Rain = 0
KTH1 042114Z 11006KT 38/17 A2989 RMK A01 T03770166  RH  029%=      5-min Rain = 0
KTH1 042115Z 10004KT 38/17 A2989 RMK A01 T03750166  RH  029%=      5-min Rain = 0
KTH1 042116Z 09005KT 38/17 A2989 RMK A01 T03750170  RH  030%=      5-min Rain = 0
KTH1 042117Z 07004KT 38/16 A2989 RMK A01 T03760163  RH  029%=      5-min Rain = 0
KTH1 042118Z 10003KT 38/17 A2989 RMK A01 T03750165  RH  029%=      5-min Rain = 0
KTH1 042119Z 14004KT 38/17 A2989 RMK A01 T03760173  RH  030%=      5-min Rain = 0
KTH1 042120Z 11004KT 38/16 A2989 RMK A01 T03770163  RH  028%=      5-min Rain = 0
KTH1 042121Z 08003KT 38/16 A2989 RMK A01 T03770162  RH  028%=      5-min Rain = 0
KTH1 042122Z 08003KT 38/16 A2989 RMK A01 T03750163  RH  029%=      5-min Rain = 0
KTH1 042123Z 10003KT 38/17 A2989 RMK A01 T03750166  RH  029%=      5-min Rain = 0
KTH1 042124Z 10007KT 38/16 A2989 RMK A01 T03760164  RH  029%=      5-min Rain = 0
KTH1 042125Z 10005KT 38/17 A2989 RMK A01 T03760168  RH  029%=      5-min Rain = 0
KTH1 042126Z 11004KT 38/16 A2989 RMK A01 T03770163  RH  028%=      5-min Rain = 0
KTH1 042127Z 09005KT 38/16 A2989 RMK A01 T03770163  RH  028%=      5-min Rain = 0
KTH1 042128Z 08005KT 38/16 A2989 RMK A01 T03770164  RH  029%=      5-min Rain = 0
KTH1 042129Z 08003KT 38/16 A2989 RMK A01 T03770164  RH  029%=      5-min Rain = 0
KTH1 042130Z 09005KT 38/16 A2989 RMK A01 T03770159  RH  028%=      5-min Rain = 0
KTH1 042131Z 11005KT 38/16 A2989 RMK A01 T03760163  RH  029%=      5-min Rain = 0
KTH1 042132Z 10005KT 38/16 A2989 RMK A01 T03760163  RH  028%=      5-min Rain = 0
KTH1 042133Z 09005KT 38/16 A2988 RMK A01 T03760161  RH  028%=      5-min Rain = 0
KTH1 042134Z 09006KT 38/16 A2988 RMK A01 T03750161  RH  028%=      5-min Rain = 0
KTH1 042135Z 09005KT 37/16 A2988 RMK A01 T03740159  RH  028%=      5-min Rain = 0
KTH1 042136Z 09004KT 37/16 A2988 RMK A01 T03730163  RH  029%=      5-min Rain = 0
KTH1 042137Z 10005KT 37/16 A2988 RMK A01 T03740159  RH  028%=      5-min Rain = 0
KTH1 042138Z 09006KT 37/16 A2988 RMK A01 T03730161  RH  029%=      5-min Rain = 0
KTH1 042139Z 09006KT 37/16 A2988 RMK A01 T03730162  RH  029%=      5-min Rain = 0
KTH1 042140Z 08005KT 37/16 A2988 RMK A01 T03730164  RH  029%=      5-min Rain = 0
KTH1 042141Z 07005KT 37/16 A2988 RMK A01 T03740164  RH  029%=      5-min Rain = 0
KTH1 042142Z 07005KT 37/17 A2988 RMK A01 T03740168  RH  030%=      5-min Rain = 0
KTH1 042143Z 10004KT 37/17 A2988 RMK A01 T03740166  RH  029%=      5-min Rain = 0
KTH1 042144Z 11004KT 37/16 A2988 RMK A01 T03740161  RH  029%=      5-min Rain = 0
KTH1 042145Z 13006KT 37/17 A2988 RMK A01 T03740165  RH  029%=      5-min Rain = 0
KTH1 042146Z 11004KT 38/16 A2988 RMK A01 T03750160  RH  028%=      5-min Rain = 0
KTH1 042147Z 09004KT 38/16 A2988 RMK A01 T03750162  RH  029%=      5-min Rain = 0
KTH1 042148Z 12005KT 38/16 A2988 RMK A01 T03750164  RH  029%=      5-min Rain = 0
KTH1 042149Z 13006KT 38/16 A2988 RMK A01 T03750161  RH  028%=      5-min Rain = 0
KTH1 042150Z 15004KT 38/16 A2988 RMK A01 T03750162  RH  028%=      5-min Rain = 0
KTH1 042151Z 17002KT 38/16 A2988 RMK A01 T03750158  RH  028%=      5-min Rain = 0
KTH1 042152Z 15001KT 38/15 A2988 RMK A01 T03750153  RH  027%=      5-min Rain = 0
KTH1 042153Z 09001KT 38/16 A2988 RMK A01 T03760159  RH  028%=      5-min Rain = 0
KTH1 042154Z 09001KT 38/17 A2988 RMK A01 T03770165  RH  029%=      5-min Rain = 0
KTH1 042155Z 11002KT 38/16 A2988 RMK A01 T03780163  RH  028%=      5-min Rain = 0
KTH1 042156Z 08003KT 38/17 A2988 RMK A01 T03790166  RH  029%=      5-min Rain = 0
KTH1 042157Z 08005KT 38/17 A2988 RMK A01 T03820169  RH  029%=      5-min Rain = 0
KTH1 042158Z 07005KT 38/16 A2988 RMK A01 T03810162  RH  028%=      5-min Rain = 0
KTH1 042159Z 07003KT 38/17 A2987 RMK A01 T03780165  RH  029%=      5-min Rain = 0
KTH1 042200Z 10004KT 38/17 A2987 RMK A01 T03770165  RH  029%=      5-min Rain = 0
KTH1 042201Z 12006KT 38/17 A2987 RMK A01 T03770165  RH  029%=      5-min Rain = 0
KTH1 042202Z 13007KT 38/16 A2987 RMK A01 T03770164  RH  029%=      5-min Rain = 0
KTH1 042203Z 12006KT 38/16 A2987 RMK A01 T03760162  RH  028%=      5-min Rain = 0
KTH1 042204Z 13004KT 38/16 A2987 RMK A01 T03750162  RH  029%=      5-min Rain = 0
KTH1 042205Z 15003KT 38/16 A2987 RMK A01 T03750158  RH  028%=      5-min Rain = 0
KTH1 042206Z 12004KT 38/16 A2987 RMK A01 T03750164  RH  029%=      5-min Rain = 0
KTH1 042207Z 09006KT 38/17 A2987 RMK A01 T03760166  RH  029%=      5-min Rain = 0
KTH1 042208Z 09005KT 38/16 A2987 RMK A01 T03760164  RH  029%=      5-min Rain = 0
KTH1 042209Z 08006KT 38/16 A2987 RMK A01 T03760161  RH  028%=      5-min Rain = 0
KTH1 042210Z 08005KT 38/16 A2987 RMK A01 T03760161  RH  028%=      5-min Rain = 0
KTH1 042211Z 06003KT 38/16 A2987 RMK A01 T03750157  RH  028%=      5-min Rain = 0
KTH1 042212Z 02002KT 37/16 A2987 RMK A01 T03740157  RH  028%=      5-min Rain = 0
KTH1 042213Z 00002KT 37/15 A2987 RMK A01 T03720151  RH  027%=      5-min Rain = 0
KTH1 042214Z 00002KT 37/16 A2987 RMK A01 T03710159  RH  029%=      5-min Rain = 0
KTH1 042215Z 03004KT 37/16 A2987 RMK A01 T03720162  RH  029%=      5-min Rain = 0
KTH1 042216Z 05003KT 37/16 A2987 RMK A01 T03730158  RH  028%=      5-min Rain = 0
KTH1 042217Z 03002KT 37/16 A2987 RMK A01 T03730155  RH  028%=      5-min Rain = 0
KTH1 042218Z 04002KT 37/16 A2987 RMK A01 T03730161  RH  029%=      5-min Rain = 0
KTH1 042219Z 04002KT 37/16 A2987 RMK A01 T03740164  RH  029%=      5-min Rain = 0
KTH1 042220Z 06002KT 38/17 A2987 RMK A01 T03750165  RH  029%=      5-min Rain = 0
KTH1 042221Z 07005KT 38/16 A2987 RMK A01 T03750161  RH  028%=      5-min Rain = 0
KTH1 042222Z 10006KT 38/17 A2987 RMK A01 T03760169  RH  030%=      5-min Rain = 0
KTH1 042223Z 09005KT 38/16 A2987 RMK A01 T03770162  RH  028%=      5-min Rain = 0
KTH1 042224Z 10006KT 38/17 A2987 RMK A01 T03770165  RH  029%=      5-min Rain = 0
KTH1 042225Z 06004KT 38/17 A2987 RMK A01 T03770172  RH  030%=      5-min Rain = 0
KTH1 042226Z 06004KT 38/17 A2987 RMK A01 T03770165  RH  029%=      5-min Rain = 0
KTH1 042227Z 09002KT 38/17 A2987 RMK A01 T03770167  RH  029%=      5-min Rain = 0
KTH1 042228Z 12002KT 38/17 A2987 RMK A01 T03770167  RH  029%=      5-min Rain = 0
KTH1 042229Z 08003KT 38/17 A2987 RMK A01 T03780168  RH  029%=      5-min Rain = 0
KTH1 042230Z 07004KT 38/16 A2987 RMK A01 T03790164  RH  028%=      5-min Rain = 0
KTH1 042231Z 08003KT 38/17 A2987 RMK A01 T03790170  RH  029%=      5-min Rain = 0
KTH1 042232Z 10004KT 38/17 A2987 RMK A01 T03790172  RH  030%=      5-min Rain = 0
KTH1 042233Z 11004KT 38/17 A2987 RMK A01 T03790169  RH  029%=      5-min Rain = 0
KTH1 042234Z 10005KT 38/17 A2987 RMK A01 T03790167  RH  029%=      5-min Rain = 0
KTH1 042235Z 10004KT 38/16 A2987 RMK A01 T03790163  RH  028%=      5-min Rain = 0
KTH1 042236Z 08002KT 38/16 A2987 RMK A01 T03780164  RH  029%=      5-min Rain = 0
KTH1 042237Z 11002KT 38/17 A2987 RMK A01 T03780172  RH  030%=      5-min Rain = 0
KTH1 042238Z 15005KT 38/17 A2987 RMK A01 T03790165  RH  028%=      5-min Rain = 0
KTH1 042239Z 14005KT 38/17 A2987 RMK A01 T03790166  RH  029%=      5-min Rain = 0
KTH1 042240Z 13002KT 38/17 A2986 RMK A01 T03790172  RH  030%=      5-min Rain = 0
KTH1 042241Z 17003KT 38/18 A2986 RMK A01 T03800178  RH  031%=      5-min Rain = 0
KTH1 042242Z 17005KT 38/17 A2986 RMK A01 T03810166  RH  028%=      5-min Rain = 0
KTH1 042243Z 17004KT 38/16 A2986 RMK A01 T03790161  RH  028%=      5-min Rain = 0
KTH1 042244Z 18002KT 38/17 A2986 RMK A01 T03790167  RH  029%=      5-min Rain = 0
KTH1 042245Z 15003KT 38/17 A2986 RMK A01 T03790165  RH  028%=      5-min Rain = 0
KTH1 042246Z 15002KT 38/16 A2986 RMK A01 T03780159  RH  027%=      5-min Rain = 0
KTH1 042247Z 13003KT 38/17 A2986 RMK A01 T03780165  RH  029%=      5-min Rain = 0
KTH1 042248Z 14003KT 38/17 A2986 RMK A01 T03790169  RH  029%=      5-min Rain = 0
KTH1 042249Z 16002KT 38/17 A2986 RMK A01 T03800165  RH  028%=      5-min Rain = 0
KTH1 042250Z 14002KT 38/17 A2986 RMK A01 T03800166  RH  029%=      5-min Rain = 0
KTH1 042251Z 12003KT 38/16 A2986 RMK A01 T03800164  RH  028%=      5-min Rain = 0
KTH1 042252Z 10003G8KT 38/16 A2986 RMK A01 T03790164  RH  028%=      5-min Rain = 0
KTH1 042253Z 11005KT 38/17 A2985 RMK A01 T03780169  RH  029%=      5-min Rain = 0
KTH1 042254Z 12006KT 38/17 A2985 RMK A01 T03770167  RH  029%=      5-min Rain = 0
KTH1 042255Z 12005KT 38/17 A2985 RMK A01 T03760170  RH  030%=      5-min Rain = 0
KTH1 042256Z 11004KT 38/17 A2985 RMK A01 T03750170  RH  030%=      5-min Rain = 0
KTH1 042257Z 11004KT 38/17 A2985 RMK A01 T03750168  RH  030%=      5-min Rain = 0
KTH1 042258Z 12004KT 37/17 A2985 RMK A01 T03740166  RH  029%=      5-min Rain = 0
KTH1 042259Z 12007KT 37/17 A2985 RMK A01 T03740166  RH  029%=      5-min Rain = 0
KTH1 042300Z 12007KT 37/17 A2985 RMK A01 T03730165  RH  029%=      5-min Rain = 0
KTH1 042301Z 13005KT 37/17 A2985 RMK A01 T03720172  RH  031%=      5-min Rain = 0
KTH1 042302Z 12004KT 37/17 A2985 RMK A01 T03730167  RH  030%=      5-min Rain = 0
KTH1 042303Z 14004KT 37/16 A2985 RMK A01 T03730163  RH  029%=      5-min Rain = 0
KTH1 042304Z 12003KT 37/16 A2985 RMK A01 T03730162  RH  029%=      5-min Rain = 0
KTH1 042305Z 13004KT 37/16 A2985 RMK A01 T03730164  RH  029%=      5-min Rain = 0
KTH1 042306Z 14002KT 37/16 A2985 RMK A01 T03740161  RH  029%=      5-min Rain = 0
KTH1 042307Z 12001KT 37/17 A2985 RMK A01 T03740167  RH  030%=      5-min Rain = 0
KTH1 042308Z 07000KT 38/16 A2985 RMK A01 T03750159  RH  028%=      5-min Rain = 0
KTH1 042309Z 11004KT 38/16 A2985 RMK A01 T03770162  RH  028%=      5-min Rain = 0
KTH1 042310Z 10003KT 38/17 A2985 RMK A01 T03780167  RH  029%=      5-min Rain = 0
KTH1 042311Z 09003KT 38/16 A2986 RMK A01 T03770161  RH  028%=      5-min Rain = 0
KTH1 042312Z 09003KT 38/17 A2986 RMK A01 T03760167  RH  029%=      5-min Rain = 0
KTH1 042313Z 10003KT 38/17 A2985 RMK A01 T03760168  RH  029%=      5-min Rain = 0
KTH1 042314Z 10006KT 38/17 A2985 RMK A01 T03770174  RH  030%=      5-min Rain = 0
KTH1 042315Z 11006KT 38/16 A2985 RMK A01 T03770164  RH  029%=      5-min Rain = 0
KTH1 042316Z 12007KT 38/17 A2985 RMK A01 T03760165  RH  029%=      5-min Rain = 0
KTH1 042317Z 12008KT 38/16 A2985 RMK A01 T03750156  RH  028%=      5-min Rain = 0
KTH1 042318Z 10005KT 37/16 A2985 RMK A01 T03730156  RH  028%=      5-min Rain = 0
KTH1 042319Z 12005KT 37/16 A2985 RMK A01 T03720160  RH  029%=      5-min Rain = 0
KTH1 042320Z 11005KT 37/16 A2985 RMK A01 T03720155  RH  028%=      5-min Rain = 0
KTH1 042321Z 10006KT 37/16 A2985 RMK A01 T03710159  RH  029%=      5-min Rain = 0
KTH1 042322Z 11005KT 37/17 A2985 RMK A01 T03710168  RH  030%=      5-min Rain = 0
KTH1 042323Z 09007KT 37/17 A2985 RMK A01 T03720166  RH  030%=      5-min Rain = 0
KTH1 042324Z 09004KT 37/17 A2985 RMK A01 T03720167  RH  030%=      5-min Rain = 0
KTH1 042325Z 09006KT 37/16 A2985 RMK A01 T03730163  RH  029%=      5-min Rain = 0
KTH1 042326Z 08005KT 37/16 A2985 RMK A01 T03730158  RH  028%=      5-min Rain = 0
KTH1 042327Z 09004KT 37/16 A2985 RMK A01 T03720159  RH  028%=      5-min Rain = 0
KTH1 042328Z 10004KT 37/17 A2985 RMK A01 T03720167  RH  030%=      5-min Rain = 0
KTH1 042329Z 09004KT 37/16 A2985 RMK A01 T03720164  RH  029%=      5-min Rain = 0
KTH1 042330Z 08004KT 37/17 A2985 RMK A01 T03720167  RH  030%=      5-min Rain = 0
KTH1 042331Z 09003KT 37/16 A2985 RMK A01 T03720164  RH  029%=      5-min Rain = 0
KTH1 042332Z 10005KT 37/16 A2985 RMK A01 T03720162  RH  029%=      5-min Rain = 0
KTH1 042333Z 09004KT 37/16 A2985 RMK A01 T03720162  RH  029%=      5-min Rain = 0
KTH1 042334Z 09005KT 37/16 A2984 RMK A01 T03720161  RH  029%=      5-min Rain = 0
KTH1 042335Z 10006KT 37/16 A2984 RMK A01 T03710160  RH  029%=      5-min Rain = 0
KTH1 042336Z 10006KT 37/17 A2984 RMK A01 T03710165  RH  030%=      5-min Rain = 0
KTH1 042337Z 10005KT 37/16 A2984 RMK A01 T03710159  RH  029%=      5-min Rain = 0
KTH1 042338Z 12004KT 37/16 A2984 RMK A01 T03710164  RH  030%=      5-min Rain = 0
KTH1 042339Z 11002KT 37/17 A2984 RMK A01 T03710170  RH  031%=      5-min Rain = 0
KTH1 042340Z 12004KT 37/16 A2984 RMK A01 T03720164  RH  029%=      5-min Rain = 0
KTH1 042341Z 14004KT 37/17 A2984 RMK A01 T03730169  RH  030%=      5-min Rain = 0
KTH1 042342Z 14003KT 37/17 A2984 RMK A01 T03730171  RH  031%=      5-min Rain = 0
KTH1 042343Z 15003KT 37/16 A2984 RMK A01 T03730164  RH  029%=      5-min Rain = 0
KTH1 042344Z 11003KT 37/17 A2984 RMK A01 T03730168  RH  030%=      5-min Rain = 0
KTH1 042345Z 10003KT 37/16 A2984 RMK A01 T03730163  RH  029%=      5-min Rain = 0
KTH1 042346Z 10006KT 37/16 A2984 RMK A01 T03730158  RH  028%=      5-min Rain = 0
KTH1 042347Z 11007KT 37/16 A2984 RMK A01 T03720157  RH  028%=      5-min Rain = 0
KTH1 042348Z 10005KT 37/16 A2984 RMK A01 T03710157  RH  028%=      5-min Rain = 0
KTH1 042349Z 10004KT 37/16 A2984 RMK A01 T03700161  RH  029%=      5-min Rain = 0
KTH1 042350Z 10005KT 37/16 A2984 RMK A01 T03700157  RH  028%=      5-min Rain = 0
KTH1 042351Z 11006KT 37/16 A2984 RMK A01 T03700155  RH  028%=      5-min Rain = 0
KTH1 042352Z 12004KT 37/16 A2984 RMK A01 T03690155  RH  028%=      5-min Rain = 0
KTH1 042353Z 11003KT 37/16 A2984 RMK A01 T03690159  RH  029%=      5-min Rain = 0
KTH1 042354Z 10004KT 37/16 A2984 RMK A01 T03690159  RH  029%=      5-min Rain = 0
KTH1 042355Z 09006KT 37/16 A2984 RMK A01 T03690159  RH  029%=      5-min Rain = 0
KTH1 042356Z 09005KT 37/16 A2984 RMK A01 T03690162  RH  029%=      5-min Rain = 0
KTH1 042357Z 08005KT 37/16 A2984 RMK A01 T03690164  RH  030%=      5-min Rain = 0
KTH1 042358Z 08005KT 37/16 A2984 RMK A01 T03690162  RH  029%=      5-min Rain = 0
KTH1 042359Z 09006KT 37/16 A2984 RMK A01 T03690159  RH  029%=      5-min Rain = 0
KTH1 050000Z 09006KT 37/16 A2985 RMK A01 T03670160  RH  029%=      5-min Rain = 0
KTH1 050001Z 08005KT 37/16 A2985 RMK A01 T03660160  RH  030%=      5-min Rain = 0
KTH1 050002Z 08006KT 37/16 A2985 RMK A01 T03650160  RH  030%=      5-min Rain = 0
KTH1 050003Z 08006KT 36/16 A2985 RMK A01 T03640159  RH  030%=      5-min Rain = 0
KTH1 050004Z 08005KT 36/16 A2985 RMK A01 T03630160  RH  030%=      5-min Rain = 0
KTH1 050005Z 08005KT 36/16 A2985 RMK A01 T03620158  RH  030%=      5-min Rain = 0
KTH1 050006Z 09004KT 36/16 A2985 RMK A01 T03620158  RH  030%=      5-min Rain = 0
KTH1 050007Z 10006KT 36/16 A2985 RMK A01 T03630159  RH  030%=      5-min Rain = 0
KTH1 050008Z 08005KT 36/16 A2985 RMK A01 T03630159  RH  030%=      5-min Rain = 0
KTH1 050009Z 08005KT 36/16 A2985 RMK A01 T03630157  RH  029%=      5-min Rain = 0
KTH1 050010Z 08004KT 36/16 A2985 RMK A01 T03640157  RH  029%=      5-min Rain = 0
KTH1 050011Z 08006KT 36/16 A2985 RMK A01 T03640157  RH  029%=      5-min Rain = 0
KTH1 050012Z 07005KT 36/15 A2985 RMK A01 T03640152  RH  028%=      5-min Rain = 0
KTH1 050013Z 07003KT 36/16 A2985 RMK A01 T03640159  RH  030%=      5-min Rain = 0
KTH1 050014Z 07004KT 37/16 A2985 RMK A01 T03650162  RH  030%=      5-min Rain = 0
KTH1 050015Z 07008KT 37/17 A2985 RMK A01 T03650169  RH  031%=      5-min Rain = 0
KTH1 050016Z 08007KT 36/17 A2985 RMK A01 T03640174  RH  033%=      5-min Rain = 0
KTH1 050017Z 07006KT 36/18 A2985 RMK A01 T03630175  RH  033%=      5-min Rain = 0
KTH1 050018Z 07006KT 36/18 A2985 RMK A01 T03620181  RH  035%=      5-min Rain = 0
KTH1 050019Z 07005KT 36/18 A2985 RMK A01 T03610182  RH  035%=      5-min Rain = 0
KTH1 050020Z 07005KT 36/18 A2985 RMK A01 T03600183  RH  035%=      5-min Rain = 0
KTH1 050021Z 06005G10KT 36/19 A2985 RMK A01 T03600187  RH  036%=      5-min Rain = 0
KTH1 050022Z 07007KT 36/18 A2985 RMK A01 T03600181  RH  035%=      5-min Rain = 0
KTH1 050023Z 07007KT 36/18 A2985 RMK A01 T03590183  RH  035%=      5-min Rain = 0
KTH1 050024Z 07006KT 36/18 A2985 RMK A01 T03580183  RH  036%=      5-min Rain = 0
KTH1 050025Z 06007KT 36/18 A2985 RMK A01 T03560181  RH  036%=      5-min Rain = 0
KTH1 050026Z 07008KT 36/18 A2985 RMK A01 T03550181  RH  036%=      5-min Rain = 0
KTH1 050027Z 07007KT 35/18 A2985 RMK A01 T03530182  RH  037%=      5-min Rain = 0
KTH1 050028Z 08006KT 35/18 A2985 RMK A01 T03510183  RH  037%=      5-min Rain = 0
KTH1 050029Z 07006KT 35/19 A2985 RMK A01 T03490185  RH  038%=      5-min Rain = 0
KTH1 050030Z 08005KT 35/18 A2985 RMK A01 T03480184  RH  038%=      5-min Rain = 0
KTH1 050031Z 07007KT 35/18 A2985 RMK A01 T03470184  RH  038%=      5-min Rain = 0
KTH1 050032Z 07006KT 35/18 A2985 RMK A01 T03460184  RH  039%=      5-min Rain = 0
KTH1 050033Z 07007KT 35/18 A2985 RMK A01 T03450183  RH  038%=      5-min Rain = 0
KTH1 050034Z 07005KT 34/18 A2985 RMK A01 T03440183  RH  039%=      5-min Rain = 0
KTH1 050035Z 07005KT 34/18 A2985 RMK A01 T03440184  RH  039%=      5-min Rain = 0
KTH1 050036Z 07005KT 34/18 A2985 RMK A01 T03430183  RH  039%=      5-min Rain = 0
KTH1 050037Z 06006KT 34/18 A2985 RMK A01 T03420184  RH  039%=      5-min Rain = 0
KTH1 050038Z 06006KT 34/18 A2985 RMK A01 T03420183  RH  039%=      5-min Rain = 0
KTH1 050039Z 07005KT 34/18 A2985 RMK A01 T03410184  RH  039%=      5-min Rain = 0
KTH1 050040Z 07005KT 34/18 A2985 RMK A01 T03400183  RH  039%=      5-min Rain = 0
KTH1 050041Z 06005KT 34/18 A2985 RMK A01 T03390183  RH  040%=      5-min Rain = 0
KTH1 050042Z 06005KT 34/18 A2985 RMK A01 T03380183  RH  040%=      5-min Rain = 0
KTH1 050043Z 05004KT 34/19 A2986 RMK A01 T03380185  RH  040%=      5-min Rain = 0
KTH1 050044Z 06005KT 34/18 A2986 RMK A01 T03370184  RH  041%=      5-min Rain = 0
KTH1 050045Z 06005KT 34/18 A2986 RMK A01 T03360184  RH  041%=      5-min Rain = 0
KTH1 050046Z 06004KT 34/18 A2986 RMK A01 T03360184  RH  041%=      5-min Rain = 0
KTH1 050047Z 06005KT 34/19 A2986 RMK A01 T03360185  RH  041%=      5-min Rain = 0
KTH1 050048Z 07005KT 34/18 A2986 RMK A01 T03350183  RH  041%=      5-min Rain = 0
KTH1 050049Z 07004KT 34/18 A2986 RMK A01 T03350184  RH  041%=      5-min Rain = 0
KTH1 050050Z 06005KT 34/19 A2986 RMK A01 T03350185  RH  041%=      5-min Rain = 0
KTH1 050051Z 07004KT 34/19 A2986 RMK A01 T03350186  RH  041%=      5-min Rain = 0
KTH1 050052Z 07004KT 33/19 A2986 RMK A01 T03340186  RH  042%=      5-min Rain = 0
KTH1 050053Z 06005KT 33/19 A2986 RMK A01 T03330185  RH  042%=      5-min Rain = 0
KTH1 050054Z 06004KT 33/19 A2986 RMK A01 T03330186  RH  042%=      5-min Rain = 0
KTH1 050055Z 07004KT 33/19 A2986 RMK A01 T03320186  RH  042%=      5-min Rain = 0
KTH1 050056Z 06004KT 33/19 A2986 RMK A01 T03320188  RH  043%=      5-min Rain = 0
KTH1 050057Z 06004KT 33/19 A2986 RMK A01 T03310187  RH  042%=      5-min Rain = 0
KTH1 050058Z 05004KT 33/19 A2986 RMK A01 T03310188  RH  043%=      5-min Rain = 0
KTH1 050059Z 06004KT 33/19 A2987 RMK A01 T03300187  RH  043%=      5-min Rain = 0
KTH1 050100Z 05004KT 33/19 A2987 RMK A01 T03300188  RH  043%=      5-min Rain = 0
KTH1 050101Z 05004KT 33/19 A2987 RMK A01 T03300188  RH  043%=      5-min Rain = 0
KTH1 050102Z 06005KT 33/19 A2987 RMK A01 T03300189  RH  043%=      5-min Rain = 0
KTH1 050103Z 06004KT 33/19 A2987 RMK A01 T03300188  RH  043%=      5-min Rain = 0
KTH1 050104Z 05005KT 33/19 A2987 RMK A01 T03300187  RH  043%=      5-min Rain = 0
KTH1 050105Z 05004KT 33/19 A2987 RMK A01 T03300188  RH  043%=      5-min Rain = 0
KTH1 050106Z 05004KT 33/19 A2987 RMK A01 T03300188  RH  043%=      5-min Rain = 0
KTH1 050107Z 05003KT 33/19 A2987 RMK A01 T03300188  RH  043%=      5-min Rain = 0
KTH1 050108Z 05004KT 33/19 A2987 RMK A01 T03300189  RH  043%=      5-min Rain = 0
KTH1 050109Z 06004KT 33/19 A2987 RMK A01 T03300189  RH  043%=      5-min Rain = 0
KTH1 050110Z 05004KT 33/19 A2987 RMK A01 T03290189  RH  044%=      5-min Rain = 0
KTH1 050111Z 05005KT 33/19 A2987 RMK A01 T03290190  RH  044%=      5-min Rain = 0
KTH1 050112Z 05003KT 33/19 A2987 RMK A01 T03290191  RH  044%=      5-min Rain = 0
KTH1 050113Z 06004KT 33/19 A2987 RMK A01 T03290192  RH  044%=      5-min Rain = 0
KTH1 050114Z 05005KT 33/19 A2987 RMK A01 T03280192  RH  045%=      5-min Rain = 0
KTH1 050115Z 05004KT 33/19 A2987 RMK A01 T03280193  RH  045%=      5-min Rain = 0
KTH1 050116Z 05004KT 33/19 A2987 RMK A01 T03270193  RH  045%=      5-min Rain = 0
KTH1 050117Z 06004KT 33/19 A2987 RMK A01 T03270193  RH  045%=      5-min Rain = 0
KTH1 050118Z 05005KT 33/19 A2987 RMK A01 T03270194  RH  045%=      5-min Rain = 0
KTH1 050119Z 06004KT 33/20 A2987 RMK A01 T03270195  RH  046%=      5-min Rain = 0
KTH1 050120Z 05004KT 33/20 A2987 RMK A01 T03260195  RH  046%=      5-min Rain = 0
KTH1 050121Z 06004KT 33/20 A2987 RMK A01 T03260195  RH  046%=      5-min Rain = 0
KTH1 050122Z 05003KT 33/20 A2988 RMK A01 T03260196  RH  046%=      5-min Rain = 0
KTH1 050123Z 05004KT 33/20 A2988 RMK A01 T03250196  RH  047%=      5-min Rain = 0
KTH1 050124Z 05005KT 33/20 A2988 RMK A01 T03250196  RH  047%=      5-min Rain = 0
KTH1 050125Z 04004KT 33/20 A2988 RMK A01 T03250196  RH  047%=      5-min Rain = 0
KTH1 050126Z 04004KT 33/20 A2988 RMK A01 T03250196  RH  047%=      5-min Rain = 0
KTH1 050127Z 04004KT 33/20 A2988 RMK A01 T03250196  RH  047%=      5-min Rain = 0
KTH1 050128Z 04004KT 33/20 A2988 RMK A01 T03250196  RH  047%=      5-min Rain = 0
KTH1 050129Z 04005KT 33/20 A2988 RMK A01 T03250197  RH  047%=      5-min Rain = 0
KTH1 050130Z 04004KT 32/20 A2988 RMK A01 T03240197  RH  047%=      5-min Rain = 0
KTH1 050131Z 05004KT 32/20 A2988 RMK A01 T03240198  RH  047%=      5-min Rain = 0
KTH1 050132Z 05003KT 32/20 A2988 RMK A01 T03230198  RH  048%=      5-min Rain = 0
KTH1 050133Z 05003KT 32/20 A2988 RMK A01 T03230199  RH  048%=      5-min Rain = 0
KTH1 050134Z 05005KT 32/20 A2988 RMK A01 T03220198  RH  048%=      5-min Rain = 0
KTH1 050135Z 05003KT 32/20 A2988 RMK A01 T03230199  RH  048%=      5-min Rain = 0
KTH1 050136Z 05003KT 32/20 A2988 RMK A01 T03220199  RH  048%=      5-min Rain = 0
KTH1 050137Z 05004KT 32/20 A2988 RMK A01 T03220199  RH  048%=      5-min Rain = 0
KTH1 050138Z 05005KT 32/20 A2988 RMK A01 T03220199  RH  048%=      5-min Rain = 0
KTH1 050139Z 04005KT 32/20 A2988 RMK A01 T03220199  RH  048%=      5-min Rain = 0
KTH1 050140Z 05004KT 32/20 A2988 RMK A01 T03220200  RH  048%=      5-min Rain = 0
KTH1 050141Z 03004KT 32/20 A2988 RMK A01 T03220200  RH  049%=      5-min Rain = 0
KTH1 050142Z 04004KT 32/20 A2988 RMK A01 T03220200  RH  049%=      5-min Rain = 0
KTH1 050143Z 02004KT 32/20 A2988 RMK A01 T03220200  RH  049%=      5-min Rain = 0
KTH1 050144Z 00004KT 32/20 A2988 RMK A01 T03220200  RH  049%=      5-min Rain = 0
KTH1 050145Z 35005KT 32/20 A2988 RMK A01 T03220201  RH  049%=      5-min Rain = 0
KTH1 050146Z 34005KT 32/20 A2989 RMK A01 T03210203  RH  050%=      5-min Rain = 0
KTH1 050147Z 35008G13KT 32/20 A2989 RMK A01 T03200201  RH  049%=      5-min Rain = 0
KTH1 050148Z 00009KT 32/20 A2989 RMK A01 T03200197  RH  048%=      5-min Rain = 0
KTH1 050149Z 36008KT 32/20 A2989 RMK A01 T03190195  RH  048%=      5-min Rain = 0
KTH1 050150Z 01007KT 32/19 A2989 RMK A01 T03190194  RH  048%=      5-min Rain = 0
KTH1 050151Z 36006KT 32/19 A2989 RMK A01 T03190194  RH  048%=      5-min Rain = 0
KTH1 050152Z 01006KT 32/19 A2989 RMK A01 T03180194  RH  048%=      5-min Rain = 0
KTH1 050153Z 02005KT 32/19 A2989 RMK A01 T03170194  RH  048%=      5-min Rain = 0
KTH1 050154Z 03007KT 32/19 A2989 RMK A01 T03170194  RH  048%=      5-min Rain = 0
KTH1 050155Z 02006KT 32/19 A2989 RMK A01 T03170193  RH  048%=      5-min Rain = 0
KTH1 050156Z 02005KT 32/19 A2989 RMK A01 T03170193  RH  048%=      5-min Rain = 0
KTH1 050157Z 02005KT 32/19 A2989 RMK A01 T03170193  RH  048%=      5-min Rain = 0
KTH1 050158Z 02004KT 32/19 A2989 RMK A01 T03170193  RH  048%=      5-min Rain = 0
KTH1 050159Z 01005KT 32/19 A2989 RMK A01 T03160193  RH  048%=      5-min Rain = 0
KTH1 050200Z 01006KT 32/19 A2989 RMK A01 T03160193  RH  048%=      5-min Rain = 0
KTH1 050201Z 35005KT 32/19 A2989 RMK A01 T03160193  RH  048%=      5-min Rain = 0
KTH1 050202Z 35004KT 32/20 A2989 RMK A01 T03160196  RH  049%=      5-min Rain = 0
KTH1 050203Z 33003KT 32/20 A2989 RMK A01 T03150199  RH  050%=      5-min Rain = 0
KTH1 050204Z 32004KT 32/20 A2989 RMK A01 T03150200  RH  050%=      5-min Rain = 0
KTH1 050205Z 32006KT 31/20 A2989 RMK A01 T03140200  RH  051%=      5-min Rain = 0
KTH1 050206Z 31007KT 31/20 A2989 RMK A01 T03130201  RH  052%=      5-min Rain = 0
KTH1 050207Z 31008KT 31/21 A2989 RMK A01 T03130207  RH  053%=      5-min Rain = 0
KTH1 050208Z 30008KT 31/21 A2989 RMK A01 T03120208  RH  054%=      5-min Rain = 0
KTH1 050209Z 30009KT 31/20 A2989 RMK A01 T03110203  RH  053%=      5-min Rain = 0
KTH1 050210Z 31009KT 31/21 A2989 RMK A01 T03100205  RH  053%=      5-min Rain = 0
KTH1 050211Z 30009KT 31/21 A2989 RMK A01 T03080208  RH  055%=      5-min Rain = 0
KTH1 050212Z 30010KT 31/21 A2989 RMK A01 T03070212  RH  057%=      5-min Rain = 0
KTH1 050213Z 31011KT 30/22 A2989 RMK A01 T03040216  RH  059%=      5-min Rain = 0
KTH1 050214Z 32009KT 30/21 A2989 RMK A01 T03020214  RH  059%=      5-min Rain = 0
KTH1 050215Z 32010KT 30/21 A2989 RMK A01 T03010214  RH  060%=      5-min Rain = 0
KTH1 050216Z 32006KT 30/21 A2989 RMK A01 T03000211  RH  059%=      5-min Rain = 0
KTH1 050217Z 34007KT 30/21 A2989 RMK A01 T02990209  RH  059%=      5-min Rain = 0
KTH1 050218Z 35008KT 30/21 A2989 RMK A01 T02980209  RH  059%=      5-min Rain = 0
KTH1 050219Z 36009KT 30/21 A2989 RMK A01 T02980208  RH  059%=      5-min Rain = 0
KTH1 050220Z 36008G13KT 30/21 A2989 RMK A01 T02980209  RH  059%=      5-min Rain = 0
KTH1 050221Z 36007KT 30/21 A2989 RMK A01 T02970209  RH  059%=      5-min Rain = 0
KTH1 050222Z 00008KT 30/21 A2989 RMK A01 T02970209  RH  059%=      5-min Rain = 0
KTH1 050223Z 01007G12KT 30/21 A2989 RMK A01 T02960208  RH  059%=      5-min Rain = 0
KTH1 050224Z 01007G12KT 30/21 A2989 RMK A01 T02960207  RH  059%=      5-min Rain = 0
KTH1 050225Z 01008KT 30/21 A2989 RMK A01 T02970208  RH  059%=      5-min Rain = 0
KTH1 050226Z 01006KT 30/21 A2989 RMK A01 T02970208  RH  059%=      5-min Rain = 0
KTH1 050227Z 00006KT 30/21 A2989 RMK A01 T02970208  RH  059%=      5-min Rain = 0
KTH1 050228Z 36005KT 30/21 A2989 RMK A01 T02970208  RH  059%=      5-min Rain = 0
KTH1 050229Z 35006KT 30/21 A2989 RMK A01 T02980210  RH  059%=      5-min Rain = 0
KTH1 050230Z 35006KT 30/21 A2989 RMK A01 T02970210  RH  060%=      5-min Rain = 0
KTH1 050231Z 33005KT 30/21 A2989 RMK A01 T02970211  RH  060%=      5-min Rain = 0
KTH1 050232Z 34003KT 30/21 A2989 RMK A01 T02980212  RH  060%=      5-min Rain = 0
KTH1 050233Z 34005KT 30/21 A2989 RMK A01 T02970212  RH  060%=      5-min Rain = 0
KTH1 050234Z 33004KT 30/21 A2989 RMK A01 T02970212  RH  060%=      5-min Rain = 0
KTH1 050235Z 34004KT 30/21 A2989 RMK A01 T02960212  RH  061%=      5-min Rain = 0
KTH1 050236Z 34003KT 30/21 A2989 RMK A01 T02960211  RH  060%=      5-min Rain = 0
KTH1 050237Z 34003KT 30/21 A2989 RMK A01 T02960211  RH  060%=      5-min Rain = 0
KTH1 050238Z 34003KT 30/21 A2989 RMK A01 T02960212  RH  061%=      5-min Rain = 0
KTH1 050239Z 35004KT 30/21 A2989 RMK A01 T02950211  RH  061%=      5-min Rain = 0
KTH1 050240Z 35003KT 30/21 A2989 RMK A01 T02950211  RH  061%=      5-min Rain = 0
KTH1 050241Z 01003KT 30/21 A2989 RMK A01 T02950211  RH  061%=      5-min Rain = 0
KTH1 050242Z 00003KT 29/21 A2989 RMK A01 T02940211  RH  061%=      5-min Rain = 0
KTH1 050243Z 01002KT 29/21 A2988 RMK A01 T02940211  RH  061%=      5-min Rain = 0
KTH1 050244Z 00004KT 29/21 A2988 RMK A01 T02930211  RH  061%=      5-min Rain = 0
KTH1 050245Z 00005KT 29/21 A2988 RMK A01 T02930211  RH  061%=      5-min Rain = 0
KTH1 050246Z 01005KT 29/21 A2988 RMK A01 T02930211  RH  061%=      5-min Rain = 0
KTH1 050247Z 02004KT 29/21 A2988 RMK A01 T02920211  RH  061%=      5-min Rain = 0
KTH1 050248Z 01003KT 29/21 A2988 RMK A01 T02920211  RH  061%=      5-min Rain = 0
KTH1 050249Z 01004KT 29/21 A2988 RMK A01 T02920211  RH  062%=      5-min Rain = 0
KTH1 050250Z 36003KT 29/21 A2988 RMK A01 T02920211  RH  062%=      5-min Rain = 0
KTH1 050251Z 01002KT 29/21 A2988 RMK A01 T02920211  RH  062%=      5-min Rain = 0
KTH1 050252Z 02003KT 29/21 A2988 RMK A01 T02920211  RH  062%=      5-min Rain = 0
KTH1 050253Z 01002KT 29/21 A2988 RMK A01 T02910211  RH  062%=      5-min Rain = 0
KTH1 050254Z 00003KT 29/21 A2988 RMK A01 T02910211  RH  062%=      5-min Rain = 0
KTH1 050255Z 02003KT 29/21 A2988 RMK A01 T02910211  RH  062%=      5-min Rain = 0
KTH1 050256Z 02002KT 29/21 A2988 RMK A01 T02910211  RH  062%=      5-min Rain = 0
KTH1 050257Z 02003KT 29/21 A2988 RMK A01 T02910211  RH  062%=      5-min Rain = 0
KTH1 050258Z 00004KT 29/21 A2988 RMK A01 T02910212  RH  062%=      5-min Rain = 0
KTH1 050259Z 01003KT 29/21 A2988 RMK A01 T02910212  RH  062%=      5-min Rain = 0
KTH1 050300Z 00002KT 29/21 A2988 RMK A01 T02910212  RH  062%=      5-min Rain = 0
KTH1 050301Z 36003KT 29/21 A2989 RMK A01 T02910212  RH  063%=      5-min Rain = 0
KTH1 050302Z 35003KT 29/21 A2989 RMK A01 T02910212  RH  063%=      5-min Rain = 0
KTH1 050303Z 35003KT 29/21 A2989 RMK A01 T02910213  RH  063%=      5-min Rain = 0
KTH1 050304Z 35003KT 29/21 A2989 RMK A01 T02900214  RH  063%=      5-min Rain = 0
KTH1 050305Z 35003KT 29/21 A2989 RMK A01 T02900214  RH  064%=      5-min Rain = 0
KTH1 050306Z 36004KT 29/21 A2989 RMK A01 T02890214  RH  064%=      5-min Rain = 0
KTH1 050307Z 36004KT 29/21 A2989 RMK A01 T02890214  RH  064%=      5-min Rain = 0
KTH1 050308Z 00003KT 29/21 A2989 RMK A01 T02890214  RH  064%=      5-min Rain = 0
KTH1 050309Z 00003KT 29/21 A2989 RMK A01 T02880214  RH  064%=      5-min Rain = 0
KTH1 050310Z 01003KT 29/21 A2989 RMK A01 T02880214  RH  064%=      5-min Rain = 0
KTH1 050311Z 01003KT 29/21 A2989 RMK A01 T02880214  RH  064%=      5-min Rain = 0
KTH1 050312Z 01003KT 29/21 A2989 RMK A01 T02870213  RH  064%=      5-min Rain = 0
KTH1 050313Z 01004KT 29/21 A2989 RMK A01 T02870213  RH  064%=      5-min Rain = 0
KTH1 050314Z 01003KT 29/21 A2989 RMK A01 T02870213  RH  064%=      5-min Rain = 0
KTH1 050315Z 01004KT 29/21 A2989 RMK A01 T02860212  RH  064%=      5-min Rain = 0
KTH1 050316Z 01003KT 29/21 A2989 RMK A01 T02870213  RH  064%=      5-min Rain = 0
KTH1 050317Z 36003KT 29/21 A2989 RMK A01 T02860213  RH  064%=      5-min Rain = 0
KTH1 050318Z 36002KT 29/21 A2989 RMK A01 T02860213  RH  064%=      5-min Rain = 0
KTH1 050319Z 00003KT 29/21 A2989 RMK A01 T02860212  RH  064%=      5-min Rain = 0
KTH1 050320Z 00003KT 29/21 A2989 RMK A01 T02860213  RH  064%=      5-min Rain = 0
KTH1 050321Z 00003KT 29/21 A2989 RMK A01 T02860213  RH  064%=      5-min Rain = 0
KTH1 050322Z 00003KT 29/21 A2989 RMK A01 T02860213  RH  065%=      5-min Rain = 0
KTH1 050323Z 00003KT 29/21 A2989 RMK A01 T02860212  RH  065%=      5-min Rain = 0
KTH1 050324Z 35002KT 29/21 A2989 RMK A01 T02860212  RH  065%=      5-min Rain = 0
KTH1 050325Z 01002KT 29/21 A2989 RMK A01 T02860212  RH  064%=      5-min Rain = 0
KTH1 050326Z 03001KT 29/21 A2989 RMK A01 T02850212  RH  064%=      5-min Rain = 0
KTH1 050327Z 04001KT 29/21 A2989 RMK A01 T02850212  RH  065%=      5-min Rain = 0
KTH1 050328Z 03001KT 29/21 A2989 RMK A01 T02850212  RH  065%=      5-min Rain = 0
KTH1 050329Z 03001KT 29/21 A2989 RMK A01 T02850212  RH  065%=      5-min Rain = 0
KTH1 050330Z 05001KT 29/21 A2989 RMK A01 T02850212  RH  065%=      5-min Rain = 0
KTH1 050331Z 05001KT 29/21 A2989 RMK A01 T02850212  RH  065%=      5-min Rain = 0
KTH1 050332Z 06001KT 28/21 A2989 RMK A01 T02840212  RH  065%=      5-min Rain = 0
KTH1 050333Z 05001KT 28/21 A2989 RMK A01 T02840212  RH  065%=      5-min Rain = 0
KTH1 050334Z 06001KT 28/21 A2989 RMK A01 T02840212  RH  065%=      5-min Rain = 0
KTH1 050335Z 05001KT 28/21 A2989 RMK A01 T02840212  RH  065%=      5-min Rain = 0
KTH1 050336Z 06001KT 28/21 A2989 RMK A01 T02840213  RH  065%=      5-min Rain = 0
KTH1 050337Z 04001KT 28/21 A2989 RMK A01 T02840212  RH  065%=      5-min Rain = 0
KTH1 050338Z 03002KT 28/21 A2989 RMK A01 T02840212  RH  065%=      5-min Rain = 0
KTH1 050339Z 03002KT 28/21 A2989 RMK A01 T02840213  RH  065%=      5-min Rain = 0
KTH1 050340Z 02003KT 28/21 A299 RMK A01 T02840213  RH  065%=      5-min Rain = 0
KTH1 050341Z 01004KT 29/21 A299 RMK A01 T02850213  RH  065%=      5-min Rain = 0
KTH1 050342Z 02004KT 29/21 A299 RMK A01 T02850213  RH  065%=      5-min Rain = 0
KTH1 050343Z 01004KT 29/21 A299 RMK A01 T02860213  RH  065%=      5-min Rain = 0
KTH1 050344Z 02004KT 29/21 A299 RMK A01 T02850213  RH  065%=      5-min Rain = 0
KTH1 050345Z 01005KT 28/21 A299 RMK A01 T02840213  RH  065%=      5-min Rain = 0
KTH1 050346Z 02005KT 28/21 A299 RMK A01 T02840214  RH  066%=      5-min Rain = 0
KTH1 050347Z 01004KT 28/21 A299 RMK A01 T02830214  RH  066%=      5-min Rain = 0
KTH1 050348Z 02004KT 28/21 A299 RMK A01 T02820214  RH  066%=      5-min Rain = 0
KTH1 050349Z 02005KT 28/21 A2991 RMK A01 T02820214  RH  066%=      5-min Rain = 0
KTH1 050350Z 02005KT 28/21 A2991 RMK A01 T02820214  RH  067%=      5-min Rain = 0
KTH1 050351Z 03006KT 28/21 A2991 RMK A01 T02820214  RH  067%=      5-min Rain = 0
KTH1 050352Z 02005KT 28/21 A2991 RMK A01 T02820214  RH  067%=      5-min Rain = 0
KTH1 050353Z 01006KT 28/21 A2991 RMK A01 T02820214  RH  066%=      5-min Rain = 0
KTH1 050354Z 02007G12KT 28/21 A2991 RMK A01 T02820214  RH  066%=      5-min Rain = 0
KTH1 050355Z 01006G11KT 28/21 A2991 RMK A01 T02830214  RH  066%=      5-min Rain = 0
KTH1 050356Z 01004KT 28/21 A2991 RMK A01 T02830214  RH  066%=      5-min Rain = 0
KTH1 050357Z 01006G14KT 28/21 A2991 RMK A01 T02820213  RH  066%=      5-min Rain = 0
KTH1 050358Z 03009G15KT 28/21 A2991 RMK A01 T02830213  RH  066%=      5-min Rain = 0
KTH1 050359Z 02009G14KT 28/21 A2991 RMK A01 T02830213  RH  066%=      5-min Rain = 0
KTH1 050400Z 02008G14KT 28/21 A2991 RMK A01 T02840212  RH  065%=      5-min Rain = 0
KTH1 050401Z 03006KT 28/21 A2991 RMK A01 T02840212  RH  065%=      5-min Rain = 0
KTH1 050402Z 03005KT 28/21 A2991 RMK A01 T02840212  RH  065%=      5-min Rain = 0
KTH1 050403Z 03005KT 28/21 A2991 RMK A01 T02840212  RH  065%=      5-min Rain = 0
KTH1 050404Z 03006KT 28/21 A2991 RMK A01 T02840212  RH  065%=      5-min Rain = 0
KTH1 050405Z 02007KT 28/21 A2991 RMK A01 T02840212  RH  065%=      5-min Rain = 0
KTH1 050406Z 02006KT 28/21 A2991 RMK A01 T02840212  RH  065%=      5-min Rain = 0
KTH1 050407Z 03004KT 28/21 A2991 RMK A01 T02840212  RH  065%=      5-min Rain = 0
KTH1 050408Z 02005KT 28/21 A2991 RMK A01 T02840212  RH  065%=      5-min Rain = 0
KTH1 050409Z 02005KT 28/21 A2991 RMK A01 T02830212  RH  065%=      5-min Rain = 0
KTH1 050410Z 02005KT 28/21 A2991 RMK A01 T02840213  RH  065%=      5-min Rain = 0
KTH1 050411Z 02004KT 28/21 A2991 RMK A01 T02830212  RH  066%=      5-min Rain = 0
KTH1 050412Z 03004KT 28/21 A2991 RMK A01 T02830213  RH  066%=      5-min Rain = 0
KTH1 050413Z 03005KT 28/21 A2991 RMK A01 T02830213  RH  066%=      5-min Rain = 0
KTH1 050414Z 03006KT 28/21 A2991 RMK A01 T02830214  RH  066%=      5-min Rain = 0
KTH1 050415Z 03004KT 28/21 A2991 RMK A01 T02830214  RH  066%=      5-min Rain = 0
KTH1 050416Z 03007KT 28/21 A2991 RMK A01 T02830213  RH  066%=      5-min Rain = 0
KTH1 050417Z 02004KT 28/21 A2991 RMK A01 T02830214  RH  066%=      5-min Rain = 0
KTH1 050418Z 04004KT 28/21 A299 RMK A01 T02840214  RH  066%=      5-min Rain = 0
KTH1 050419Z 04005KT 28/21 A299 RMK A01 T02840214  RH  066%=      5-min Rain = 0
KTH1 050420Z 05005KT 28/22 A299 RMK A01 T02840215  RH  066%=      5-min Rain = 0
KTH1 050421Z 06004KT 28/22 A299 RMK A01 T02840215  RH  066%=      5-min Rain = 0
KTH1 050422Z 06003KT 28/22 A299 RMK A01 T02830215  RH  066%=      5-min Rain = 0
KTH1 050423Z 05005KT 28/22 A299 RMK A01 T02830215  RH  067%=      5-min Rain = 0
KTH1 050424Z 06005KT 28/22 A299 RMK A01 T02820215  RH  067%=      5-min Rain = 0
KTH1 050425Z 06005KT 28/22 A299 RMK A01 T02820215  RH  067%=      5-min Rain = 0
KTH1 050426Z 06005KT 28/22 A299 RMK A01 T02820215  RH  067%=      5-min Rain = 0
KTH1 050427Z 06005KT 28/22 A299 RMK A01 T02810215  RH  067%=      5-min Rain = 0
KTH1 050428Z 07006KT 28/22 A299 RMK A01 T02810215  RH  067%=      5-min Rain = 0
KTH1 050429Z 07005KT 28/22 A299 RMK A01 T02810215  RH  067%=      5-min Rain = 0
KTH1 050430Z 08005KT 28/22 A299 RMK A01 T02800215  RH  068%=      5-min Rain = 0
KTH1 050431Z 08005KT 28/22 A299 RMK A01 T02800215  RH  068%=      5-min Rain = 0
KTH1 050432Z 09005KT 28/22 A299 RMK A01 T02800215  RH  068%=      5-min Rain = 0
KTH1 050433Z 09004KT 28/22 A299 RMK A01 T02790215  RH  068%=      5-min Rain = 0
KTH1 050434Z 08005KT 28/22 A299 RMK A01 T02780215  RH  069%=      5-min Rain = 0
KTH1 050435Z 09004KT 28/22 A299 RMK A01 T02770215  RH  069%=      5-min Rain = 0
KTH1 050436Z 08005KT 28/22 A2989 RMK A01 T02770215  RH  069%=      5-min Rain = 0
KTH1 050437Z 09004KT 28/22 A2989 RMK A01 T02770215  RH  069%=      5-min Rain = 0
KTH1 050438Z 09004KT 28/22 A2989 RMK A01 T02760215  RH  069%=      5-min Rain = 0
KTH1 050439Z 09003KT 28/22 A2989 RMK A01 T02760216  RH  069%=      5-min Rain = 0
KTH1 050440Z 10003KT 28/22 A2989 RMK A01 T02760215  RH  070%=      5-min Rain = 0
KTH1 050441Z 10004KT 28/22 A2989 RMK A01 T02760215  RH  070%=      5-min Rain = 0
KTH1 050442Z 09004KT 28/22 A2989 RMK A01 T02760216  RH  070%=      5-min Rain = 0
KTH1 050443Z 09005KT 28/22 A2989 RMK A01 T02750215  RH  070%=      5-min Rain = 0
KTH1 050444Z 09004KT 28/22 A2989 RMK A01 T02760216  RH  070%=      5-min Rain = 0
KTH1 050445Z 09004KT 28/22 A2989 RMK A01 T02750216  RH  070%=      5-min Rain = 0
KTH1 050446Z 08003KT 28/22 A2989 RMK A01 T02750216  RH  070%=      5-min Rain = 0
KTH1 050447Z 09004KT 28/22 A2989 RMK A01 T02750216  RH  070%=      5-min Rain = 0
KTH1 050448Z 09004KT 28/22 A2989 RMK A01 T02750216  RH  070%=      5-min Rain = 0
KTH1 050449Z 08005KT 28/22 A2989 RMK A01 T02750216  RH  070%=      5-min Rain = 0
KTH1 050450Z 08004KT 28/22 A2989 RMK A01 T02750216  RH  070%=      5-min Rain = 0
KTH1 050451Z 08005KT 28/22 A2989 RMK A01 T02750216  RH  070%=      5-min Rain = 0
KTH1 050452Z 07004KT 27/22 A2989 RMK A01 T02740216  RH  070%=      5-min Rain = 0
KTH1 050453Z 07005KT 28/22 A2989 RMK A01 T02750216  RH  071%=      5-min Rain = 0
KTH1 050454Z 07004KT 27/22 A2989 RMK A01 T02740216  RH  071%=      5-min Rain = 0
KTH1 050455Z 07004KT 27/22 A2989 RMK A01 T02740216  RH  071%=      5-min Rain = 0
KTH1 050456Z 07004KT 27/22 A2989 RMK A01 T02740216  RH  071%=      5-min Rain = 0
KTH1 050457Z 07005KT 27/22 A2989 RMK A01 T02730216  RH  071%=      5-min Rain = 0
KTH1 050458Z 07005KT 27/22 A2989 RMK A01 T02730217  RH  071%=      5-min Rain = 0
KTH1 050459Z 07004KT 27/22 A2989 RMK A01 T02730216  RH  071%=      5-min Rain = 0

Page generated in 0.1219 seconds.